Observation data for Crowell on 05/15/2018      Previous  Date  Next       Current Mesonet Observations  Soil Data  Daily Summary Page  Observations in Plain Language
KCR1 150500Z 08013KT 20/17 A2989 RMK A01 T01950167  RH  084%=      5-min Rain = 0
KCR1 150501Z 08013KT 20/17 A2989 RMK A01 T01950167  RH  084%=      5-min Rain = 0
KCR1 150502Z 08012KT 20/17 A2989 RMK A01 T01950167  RH  084%=      5-min Rain = 0
KCR1 150503Z 09011KT 20/17 A2989 RMK A01 T01950167  RH  084%=      5-min Rain = 0
KCR1 150504Z 08010KT 20/17 A2989 RMK A01 T01950167  RH  084%=      5-min Rain = 0
KCR1 150505Z 08011KT 19/17 A2989 RMK A01 T01940167  RH  084%=      5-min Rain = 0
KCR1 150506Z 08010KT 19/17 A2989 RMK A01 T01940167  RH  084%=      5-min Rain = 0
KCR1 150507Z 08013KT 19/17 A2989 RMK A01 T01940166  RH  084%=      5-min Rain = 0
KCR1 150508Z 08012KT 19/17 A2989 RMK A01 T01940166  RH  084%=      5-min Rain = 0
KCR1 150509Z 08010KT 19/17 A2989 RMK A01 T01940166  RH  084%=      5-min Rain = 0
KCR1 150510Z 08010KT 19/17 A2989 RMK A01 T01940166  RH  084%=      5-min Rain = 0
KCR1 150511Z 08011KT 19/17 A2989 RMK A01 T01940165  RH  083%=      5-min Rain = 0
KCR1 150512Z 08010KT 19/17 A2989 RMK A01 T01940165  RH  083%=      5-min Rain = 0
KCR1 150513Z 08012KT 19/17 A299 RMK A01 T01940165  RH  083%=      5-min Rain = 0
KCR1 150514Z 08010KT 19/17 A299 RMK A01 T01940165  RH  083%=      5-min Rain = 0
KCR1 150515Z 08012KT 19/17 A299 RMK A01 T01940165  RH  083%=      5-min Rain = 0
KCR1 150516Z 08012KT 20/17 A299 RMK A01 T01950165  RH  083%=      5-min Rain = 0
KCR1 150517Z 09010KT 20/17 A299 RMK A01 T01950165  RH  083%=      5-min Rain = 0
KCR1 150518Z 09009KT 20/17 A299 RMK A01 T01950165  RH  083%=      5-min Rain = 0
KCR1 150519Z 09010KT 20/17 A299 RMK A01 T01950165  RH  083%=      5-min Rain = 0
KCR1 150520Z 09010KT 20/17 A299 RMK A01 T01950165  RH  083%=      5-min Rain = 0
KCR1 150521Z 09009KT 20/16 A299 RMK A01 T01950164  RH  083%=      5-min Rain = 0
KCR1 150522Z 09010KT 20/16 A299 RMK A01 T01950164  RH  083%=      5-min Rain = 0
KCR1 150523Z 09010KT 20/16 A2989 RMK A01 T01950164  RH  082%=      5-min Rain = 0
KCR1 150524Z 09010KT 20/16 A2989 RMK A01 T01950164  RH  082%=      5-min Rain = 0
KCR1 150525Z 09010KT 20/16 A2989 RMK A01 T01950163  RH  082%=      5-min Rain = 0
KCR1 150526Z 09010KT 20/16 A2989 RMK A01 T01950163  RH  082%=      5-min Rain = 0
KCR1 150527Z 09008KT 20/16 A2989 RMK A01 T01950163  RH  082%=      5-min Rain = 0
KCR1 150528Z 09007KT 20/16 A2989 RMK A01 T01950164  RH  082%=      5-min Rain = 0
KCR1 150529Z 09007KT 20/16 A2989 RMK A01 T01950164  RH  083%=      5-min Rain = 0
KCR1 150530Z 09007KT 19/16 A2989 RMK A01 T01940164  RH  083%=      5-min Rain = 0
KCR1 150531Z 09008KT 19/16 A2989 RMK A01 T01940164  RH  083%=      5-min Rain = 0
KCR1 150532Z 09008KT 19/16 A2989 RMK A01 T01940164  RH  082%=      5-min Rain = 0
KCR1 150533Z 09008KT 19/16 A2989 RMK A01 T01940164  RH  083%=      5-min Rain = 0
KCR1 150534Z 09008KT 19/16 A2989 RMK A01 T01940164  RH  083%=      5-min Rain = 0
KCR1 150535Z 09008KT 19/16 A2989 RMK A01 T01940164  RH  083%=      5-min Rain = 0
KCR1 150536Z 09008KT 19/16 A299 RMK A01 T01940164  RH  083%=      5-min Rain = 0
KCR1 150537Z 09007KT 19/16 A299 RMK A01 T01940164  RH  083%=      5-min Rain = 0
KCR1 150538Z 09009KT 19/16 A299 RMK A01 T01940164  RH  083%=      5-min Rain = 0
KCR1 150539Z 08009KT 19/16 A299 RMK A01 T01940163  RH  082%=      5-min Rain = 0
KCR1 150540Z 09008KT 19/16 A299 RMK A01 T01940163  RH  082%=      5-min Rain = 0
KCR1 150541Z 09007KT 19/16 A299 RMK A01 T01940164  RH  082%=      5-min Rain = 0
KCR1 150542Z 09008KT 19/16 A299 RMK A01 T01940164  RH  083%=      5-min Rain = 0
KCR1 150543Z 10008KT 19/17 A299 RMK A01 T01940165  RH  083%=      5-min Rain = 0
KCR1 150544Z 10007KT 19/17 A299 RMK A01 T01940165  RH  083%=      5-min Rain = 0
KCR1 150545Z 10006KT 19/17 A299 RMK A01 T01940165  RH  083%=      5-min Rain = 0
KCR1 150546Z 10006KT 19/17 A299 RMK A01 T01940165  RH  083%=      5-min Rain = 0
KCR1 150547Z 10005KT 19/17 A299 RMK A01 T01940165  RH  083%=      5-min Rain = 0
KCR1 150548Z 09005KT 19/17 A299 RMK A01 T01940165  RH  083%=      5-min Rain = 0
KCR1 150549Z 09005KT 19/17 A299 RMK A01 T01940165  RH  083%=      5-min Rain = 0
KCR1 150550Z 09005KT 19/17 A299 RMK A01 T01940165  RH  083%=      5-min Rain = 0
KCR1 150551Z 09006KT 19/17 A299 RMK A01 T01940165  RH  084%=      5-min Rain = 0
KCR1 150552Z 09005KT 19/16 A299 RMK A01 T01930164  RH  084%=      5-min Rain = 0
KCR1 150553Z 10005KT 19/17 A299 RMK A01 T01930165  RH  084%=      5-min Rain = 0
KCR1 150554Z 10006KT 19/17 A299 RMK A01 T01930165  RH  084%=      5-min Rain = 0
KCR1 150555Z 09006KT 19/17 A2991 RMK A01 T01930165  RH  084%=      5-min Rain = 0
KCR1 150556Z 10006KT 19/17 A2991 RMK A01 T01930165  RH  084%=      5-min Rain = 0
KCR1 150557Z 10006KT 19/17 A2991 RMK A01 T01930165  RH  084%=      5-min Rain = 0
KCR1 150558Z 09007KT 19/17 A2991 RMK A01 T01930165  RH  084%=      5-min Rain = 0
KCR1 150559Z 09006KT 19/17 A2991 RMK A01 T01930165  RH  084%=      5-min Rain = 0
KCR1 150600Z 09006KT 19/17 A2991 RMK A01 T01930165  RH  083%=      5-min Rain = 0
KCR1 150601Z 10006KT 19/17 A2991 RMK A01 T01940165  RH  083%=      5-min Rain = 0
KCR1 150602Z 11005KT 19/17 A2991 RMK A01 T01940165  RH  083%=      5-min Rain = 0
KCR1 150603Z 12005KT 19/17 A2991 RMK A01 T01940165  RH  083%=      5-min Rain = 0
KCR1 150604Z 11005KT 20/17 A299 RMK A01 T01950166  RH  083%=      5-min Rain = 0
KCR1 150605Z 11004KT 19/17 A299 RMK A01 T01940165  RH  084%=      5-min Rain = 0
KCR1 150606Z 10005KT 19/17 A299 RMK A01 T01930165  RH  084%=      5-min Rain = 0
KCR1 150607Z 09005KT 19/17 A299 RMK A01 T01930165  RH  084%=      5-min Rain = 0
KCR1 150608Z 11005KT 19/16 A299 RMK A01 T01930164  RH  083%=      5-min Rain = 0
KCR1 150609Z 10005KT 19/17 A299 RMK A01 T01940165  RH  083%=      5-min Rain = 0
KCR1 150610Z 10005KT 19/17 A299 RMK A01 T01940165  RH  083%=      5-min Rain = 0
KCR1 150611Z 11005KT 19/16 A299 RMK A01 T01940164  RH  083%=      5-min Rain = 0
KCR1 150612Z 10005KT 19/16 A299 RMK A01 T01940164  RH  083%=      5-min Rain = 0
KCR1 150613Z 09005KT 19/16 A299 RMK A01 T01940164  RH  083%=      5-min Rain = 0
KCR1 150614Z 09004KT 20/16 A299 RMK A01 T01950164  RH  083%=      5-min Rain = 0
KCR1 150615Z 08004KT 19/16 A299 RMK A01 T01940164  RH  083%=      5-min Rain = 0
KCR1 150616Z 08003KT 19/16 A2991 RMK A01 T01940164  RH  082%=      5-min Rain = 0
KCR1 150617Z 09004KT 19/16 A2991 RMK A01 T01940164  RH  083%=      5-min Rain = 0
KCR1 150618Z 08004KT 19/16 A2991 RMK A01 T01940164  RH  083%=      5-min Rain = 0
KCR1 150619Z 08004KT 19/16 A2991 RMK A01 T01940163  RH  082%=      5-min Rain = 0
KCR1 150620Z 08003KT 19/16 A2991 RMK A01 T01930163  RH  082%=      5-min Rain = 0
KCR1 150621Z 08003KT 19/16 A2991 RMK A01 T01930163  RH  082%=      5-min Rain = 0
KCR1 150622Z 08002KT 19/16 A2991 RMK A01 T01940163  RH  082%=      5-min Rain = 0
KCR1 150623Z 08002KT 19/16 A2991 RMK A01 T01930163  RH  082%=      5-min Rain = 0
KCR1 150624Z 07002KT 19/16 A2991 RMK A01 T01930163  RH  082%=      5-min Rain = 0
KCR1 150625Z 07002KT 19/16 A2991 RMK A01 T01930163  RH  082%=      5-min Rain = 0
KCR1 150626Z 05001KT 19/16 A2992 RMK A01 T01940163  RH  082%=      5-min Rain = 0
KCR1 150627Z 05001KT 19/16 A2992 RMK A01 T01940163  RH  082%=      5-min Rain = 0
KCR1 150628Z 04001KT 19/16 A2991 RMK A01 T01940163  RH  083%=      5-min Rain = 0
KCR1 150629Z 04001KT 19/16 A2991 RMK A01 T01930163  RH  082%=      5-min Rain = 0
KCR1 150630Z 34001KT 19/16 A2991 RMK A01 T01930162  RH  082%=      5-min Rain = 0
KCR1 150631Z 33000KT 19/16 A2991 RMK A01 T01930162  RH  082%=      5-min Rain = 0
KCR1 150632Z 31000KT 19/16 A2991 RMK A01 T01940162  RH  082%=      5-min Rain = 0
KCR1 150633Z 30001KT 19/16 A2991 RMK A01 T01940162  RH  082%=      5-min Rain = 0
KCR1 150634Z 30001KT 19/16 A2991 RMK A01 T01940162  RH  082%=      5-min Rain = 0
KCR1 150635Z 30001KT 19/16 A299 RMK A01 T01930163  RH  082%=      5-min Rain = 0
KCR1 150636Z 31001KT 19/16 A299 RMK A01 T01930163  RH  082%=      5-min Rain = 0
KCR1 150637Z 31002KT 19/16 A299 RMK A01 T01930163  RH  083%=      5-min Rain = 0
KCR1 150638Z 31002KT 19/16 A299 RMK A01 T01930163  RH  083%=      5-min Rain = 0
KCR1 150639Z 31002KT 19/16 A2991 RMK A01 T01930163  RH  083%=      5-min Rain = 0
KCR1 150640Z 31003KT 19/16 A2991 RMK A01 T01930163  RH  083%=      5-min Rain = 0
KCR1 150641Z 31003KT 19/16 A2991 RMK A01 T01920163  RH  083%=      5-min Rain = 0
KCR1 150642Z 31003KT 19/16 A2991 RMK A01 T01910163  RH  084%=      5-min Rain = 0
KCR1 150643Z 31003KT 19/16 A2991 RMK A01 T01910163  RH  084%=      5-min Rain = 0
KCR1 150644Z 31003KT 19/16 A2991 RMK A01 T01910163  RH  084%=      5-min Rain = 0
KCR1 150645Z 31003KT 19/16 A2991 RMK A01 T01900162  RH  084%=      5-min Rain = 0
KCR1 150646Z 31002KT 19/16 A2991 RMK A01 T01910163  RH  084%=      5-min Rain = 0
KCR1 150647Z 31002KT 19/16 A2991 RMK A01 T01910162  RH  084%=      5-min Rain = 0
KCR1 150648Z 31002KT 19/16 A2991 RMK A01 T01910162  RH  084%=      5-min Rain = 0
KCR1 150649Z 30001KT 19/16 A2991 RMK A01 T01910163  RH  084%=      5-min Rain = 0
KCR1 150650Z 29001KT 19/16 A2991 RMK A01 T01910163  RH  084%=      5-min Rain = 0
KCR1 150651Z 29002KT 19/16 A299 RMK A01 T01910163  RH  084%=      5-min Rain = 0
KCR1 150652Z 28002KT 19/16 A299 RMK A01 T01910163  RH  084%=      5-min Rain = 0
KCR1 150653Z 28002KT 19/16 A299 RMK A01 T01910164  RH  084%=      5-min Rain = 0
KCR1 150654Z 28002KT 19/16 A299 RMK A01 T01920163  RH  084%=      5-min Rain = 0
KCR1 150655Z 29002KT 19/16 A299 RMK A01 T01920163  RH  083%=      5-min Rain = 0
KCR1 150656Z 29003KT 19/16 A2991 RMK A01 T01920163  RH  083%=      5-min Rain = 0
KCR1 150657Z 29004KT 19/16 A2991 RMK A01 T01930164  RH  083%=      5-min Rain = 0
KCR1 150658Z 29004KT 19/16 A2991 RMK A01 T01920163  RH  083%=      5-min Rain = 0
KCR1 150659Z 29005KT 19/16 A2991 RMK A01 T01920163  RH  084%=      5-min Rain = 0
KCR1 150700Z 29005KT 19/16 A2991 RMK A01 T01920164  RH  084%=      5-min Rain = 0
KCR1 150701Z 29004KT 19/16 A2991 RMK A01 T01920164  RH  084%=      5-min Rain = 0
KCR1 150702Z 28004KT 19/16 A2991 RMK A01 T01910164  RH  084%=      5-min Rain = 0
KCR1 150703Z 27003KT 19/16 A2991 RMK A01 T01910164  RH  084%=      5-min Rain = 0
KCR1 150704Z 27002KT 19/16 A2991 RMK A01 T01910163  RH  084%=      5-min Rain = 0
KCR1 150705Z 25002KT 19/16 A2991 RMK A01 T01910162  RH  083%=      5-min Rain = 0
KCR1 150706Z 23002KT 19/16 A2991 RMK A01 T01920163  RH  083%=      5-min Rain = 0
KCR1 150707Z 24002KT 19/16 A2991 RMK A01 T01920164  RH  084%=      5-min Rain = 0
KCR1 150708Z 25003KT 19/16 A2991 RMK A01 T01920164  RH  084%=      5-min Rain = 0
KCR1 150709Z 25003KT 19/16 A2991 RMK A01 T01920163  RH  084%=      5-min Rain = 0
KCR1 150710Z 25004KT 19/16 A2991 RMK A01 T01920163  RH  084%=      5-min Rain = 0
KCR1 150711Z 25004KT 19/16 A2991 RMK A01 T01920164  RH  084%=      5-min Rain = 0
KCR1 150712Z 25004KT 19/16 A2991 RMK A01 T01910163  RH  084%=      5-min Rain = 0
KCR1 150713Z 25003KT 19/16 A2991 RMK A01 T01900163  RH  084%=      5-min Rain = 0
KCR1 150714Z 24003KT 19/16 A2991 RMK A01 T01900163  RH  084%=      5-min Rain = 0
KCR1 150715Z 23003KT 19/16 A2991 RMK A01 T01900163  RH  085%=      5-min Rain = 0
KCR1 150716Z 21002KT 19/16 A2991 RMK A01 T01890164  RH  085%=      5-min Rain = 0
KCR1 150717Z 19002KT 19/16 A2991 RMK A01 T01890164  RH  085%=      5-min Rain = 0
KCR1 150718Z 18003KT 19/17 A2991 RMK A01 T01890165  RH  086%=      5-min Rain = 0
KCR1 150719Z 17003KT 19/17 A299 RMK A01 T01890165  RH  086%=      5-min Rain = 0
KCR1 150720Z 16003KT 19/17 A299 RMK A01 T01880166  RH  087%=      5-min Rain = 0
KCR1 150721Z 15003KT 19/17 A299 RMK A01 T01880166  RH  087%=      5-min Rain = 0
KCR1 150722Z 15004KT 19/17 A299 RMK A01 T01870167  RH  088%=      5-min Rain = 0
KCR1 150723Z 16004KT 19/17 A299 RMK A01 T01860167  RH  088%=      5-min Rain = 0
KCR1 150724Z 17004KT 19/17 A299 RMK A01 T01860167  RH  089%=      5-min Rain = 0
KCR1 150725Z 17004KT 19/17 A299 RMK A01 T01850166  RH  089%=      5-min Rain = 0
KCR1 150726Z 17004KT 19/17 A2989 RMK A01 T01850166  RH  089%=      5-min Rain = 0
KCR1 150727Z 18005KT 19/17 A299 RMK A01 T01850166  RH  089%=      5-min Rain = 0
KCR1 150728Z 18005KT 19/17 A299 RMK A01 T01850167  RH  089%=      5-min Rain = 0
KCR1 150729Z 18004KT 19/17 A2989 RMK A01 T01850167  RH  089%=      5-min Rain = 0
KCR1 150730Z 18004KT 19/17 A2989 RMK A01 T01850167  RH  090%=      5-min Rain = 0
KCR1 150731Z 18004KT 19/17 A2989 RMK A01 T01850167  RH  089%=      5-min Rain = 0
KCR1 150732Z 18004KT 19/17 A2989 RMK A01 T01850167  RH  089%=      5-min Rain = 0
KCR1 150733Z 19004KT 19/17 A299 RMK A01 T01850167  RH  089%=      5-min Rain = 0
KCR1 150734Z 20004KT 19/17 A299 RMK A01 T01850167  RH  090%=      5-min Rain = 0
KCR1 150735Z 20002KT 19/17 A299 RMK A01 T01850167  RH  089%=      5-min Rain = 0
KCR1 150736Z 21002KT 19/17 A2989 RMK A01 T01850167  RH  089%=      5-min Rain = 0
KCR1 150737Z 23002KT 19/17 A299 RMK A01 T01850166  RH  089%=      5-min Rain = 0
KCR1 150738Z 26002KT 19/17 A299 RMK A01 T01850166  RH  089%=      5-min Rain = 0
KCR1 150739Z 26002KT 19/17 A299 RMK A01 T01850165  RH  088%=      5-min Rain = 0
KCR1 150740Z 25003KT 19/17 A299 RMK A01 T01850166  RH  088%=      5-min Rain = 0
KCR1 150741Z 24002KT 19/17 A299 RMK A01 T01850166  RH  088%=      5-min Rain = 0
KCR1 150742Z 21002KT 19/17 A2989 RMK A01 T01850165  RH  088%=      5-min Rain = 0
KCR1 150743Z 19003KT 19/17 A2989 RMK A01 T01860166  RH  088%=      5-min Rain = 0
KCR1 150744Z 20003KT 19/17 A2989 RMK A01 T01860166  RH  088%=      5-min Rain = 0
KCR1 150745Z 20003KT 19/17 A2989 RMK A01 T01860166  RH  088%=      5-min Rain = 0
KCR1 150746Z 21003KT 19/17 A2989 RMK A01 T01860167  RH  088%=      5-min Rain = 0
KCR1 150747Z 20002KT 19/17 A2989 RMK A01 T01870167  RH  088%=      5-min Rain = 0
KCR1 150748Z 19002KT 19/17 A2989 RMK A01 T01870166  RH  088%=      5-min Rain = 0
KCR1 150749Z 19003KT 19/17 A2989 RMK A01 T01870167  RH  088%=      5-min Rain = 0
KCR1 150750Z 18003KT 19/17 A2989 RMK A01 T01870167  RH  088%=      5-min Rain = 0
KCR1 150751Z 17003KT 19/17 A2989 RMK A01 T01860167  RH  089%=      5-min Rain = 0
KCR1 150752Z 17003KT 19/17 A2988 RMK A01 T01860168  RH  089%=      5-min Rain = 0
KCR1 150753Z 16003KT 19/17 A2988 RMK A01 T01850168  RH  090%=      5-min Rain = 0
KCR1 150754Z 16003KT 18/17 A2988 RMK A01 T01840168  RH  090%=      5-min Rain = 0
KCR1 150755Z 16004KT 18/17 A2988 RMK A01 T01840168  RH  090%=      5-min Rain = 0
KCR1 150756Z 16005KT 18/17 A2988 RMK A01 T01830167  RH  090%=      5-min Rain = 0
KCR1 150757Z 15006KT 18/17 A2988 RMK A01 T01830167  RH  090%=      5-min Rain = 0
KCR1 150758Z 15006KT 18/17 A2988 RMK A01 T01830167  RH  090%=      5-min Rain = 0
KCR1 150759Z 14007KT 18/17 A2988 RMK A01 T01830167  RH  090%=      5-min Rain = 0
KCR1 150800Z 14007KT 18/17 A2987 RMK A01 T01830167  RH  090%=      5-min Rain = 0
KCR1 150801Z 14007KT 18/17 A2987 RMK A01 T01830167  RH  090%=      5-min Rain = 0
KCR1 150802Z 15007KT 18/17 A2987 RMK A01 T01830166  RH  090%=      5-min Rain = 0
KCR1 150803Z 15006KT 18/17 A2988 RMK A01 T01830166  RH  090%=      5-min Rain = 0
KCR1 150804Z 15006KT 18/17 A2988 RMK A01 T01830166  RH  090%=      5-min Rain = 0
KCR1 150805Z 16006KT 18/17 A2988 RMK A01 T01830166  RH  089%=      5-min Rain = 0
KCR1 150806Z 16007KT 18/17 A2988 RMK A01 T01830166  RH  089%=      5-min Rain = 0
KCR1 150807Z 15007KT 18/17 A2988 RMK A01 T01840165  RH  089%=      5-min Rain = 0
KCR1 150808Z 15008KT 18/17 A2987 RMK A01 T01840165  RH  089%=      5-min Rain = 0
KCR1 150809Z 15008KT 18/17 A2987 RMK A01 T01840166  RH  089%=      5-min Rain = 0
KCR1 150810Z 14009KT 18/17 A2987 RMK A01 T01840165  RH  089%=      5-min Rain = 0
KCR1 150811Z 15009KT 18/17 A2987 RMK A01 T01840166  RH  089%=      5-min Rain = 0
KCR1 150812Z 15008KT 18/17 A2987 RMK A01 T01840165  RH  089%=      5-min Rain = 0
KCR1 150813Z 15008KT 18/17 A2987 RMK A01 T01840165  RH  089%=      5-min Rain = 0
KCR1 150814Z 15008KT 18/17 A2987 RMK A01 T01840165  RH  089%=      5-min Rain = 0
KCR1 150815Z 14008KT 18/17 A2987 RMK A01 T01840165  RH  089%=      5-min Rain = 0
KCR1 150816Z 14008KT 18/16 A2986 RMK A01 T01840164  RH  089%=      5-min Rain = 0
KCR1 150817Z 14008KT 18/16 A2986 RMK A01 T01840164  RH  088%=      5-min Rain = 0
KCR1 150818Z 14008KT 18/17 A2986 RMK A01 T01840165  RH  088%=      5-min Rain = 0
KCR1 150819Z 14008KT 18/16 A2986 RMK A01 T01840164  RH  088%=      5-min Rain = 0
KCR1 150820Z 14008KT 18/16 A2986 RMK A01 T01840164  RH  088%=      5-min Rain = 0
KCR1 150821Z 14008KT 18/16 A2986 RMK A01 T01840164  RH  088%=      5-min Rain = 0
KCR1 150822Z 13008KT 18/17 A2986 RMK A01 T01840165  RH  088%=      5-min Rain = 0
KCR1 150823Z 13008KT 18/17 A2986 RMK A01 T01840165  RH  089%=      5-min Rain = 0
KCR1 150824Z 13007KT 18/17 A2986 RMK A01 T01840165  RH  089%=      5-min Rain = 0
KCR1 150825Z 12007KT 18/17 A2986 RMK A01 T01840165  RH  089%=      5-min Rain = 0
KCR1 150826Z 12006KT 18/17 A2986 RMK A01 T01840165  RH  089%=      5-min Rain = 0
KCR1 150827Z 11004KT 18/17 A2986 RMK A01 T01840165  RH  089%=      5-min Rain = 0
KCR1 150828Z 09004KT 18/17 A2987 RMK A01 T01840165  RH  089%=      5-min Rain = 0
KCR1 150829Z 07003KT 18/17 A2987 RMK A01 T01840165  RH  088%=      5-min Rain = 0
KCR1 150830Z 04004KT 19/17 A2987 RMK A01 T01850165  RH  088%=      5-min Rain = 0
KCR1 150831Z 03005KT 19/17 A2987 RMK A01 T01860165  RH  088%=      5-min Rain = 0
KCR1 150832Z 05005KT 19/17 A2988 RMK A01 T01860166  RH  088%=      5-min Rain = 0
KCR1 150833Z 06005KT 19/17 A2987 RMK A01 T01860166  RH  088%=      5-min Rain = 0
KCR1 150834Z 07005KT 19/17 A2987 RMK A01 T01860166  RH  088%=      5-min Rain = 0
KCR1 150835Z 08006KT 19/17 A2987 RMK A01 T01860166  RH  088%=      5-min Rain = 0
KCR1 150836Z 09007KT 19/17 A2987 RMK A01 T01860166  RH  088%=      5-min Rain = 0
KCR1 150837Z 10007KT 19/17 A2987 RMK A01 T01860166  RH  088%=      5-min Rain = 0
KCR1 150838Z 10007KT 19/17 A2987 RMK A01 T01860166  RH  088%=      5-min Rain = 0
KCR1 150839Z 10007KT 19/17 A2986 RMK A01 T01850166  RH  089%=      5-min Rain = 0
KCR1 150840Z 11007KT 19/17 A2986 RMK A01 T01850166  RH  089%=      5-min Rain = 0
KCR1 150841Z 11007KT 19/17 A2986 RMK A01 T01860166  RH  088%=      5-min Rain = 0
KCR1 150842Z 11007KT 19/17 A2986 RMK A01 T01860167  RH  088%=      5-min Rain = 0
KCR1 150843Z 11007KT 19/17 A2986 RMK A01 T01860167  RH  088%=      5-min Rain = 0
KCR1 150844Z 12006KT 19/17 A2986 RMK A01 T01870167  RH  088%=      5-min Rain = 0
KCR1 150845Z 13005KT 19/17 A2987 RMK A01 T01880168  RH  088%=      5-min Rain = 0
KCR1 150846Z 14006KT 19/17 A2987 RMK A01 T01870168  RH  088%=      5-min Rain = 0
KCR1 150847Z 14006KT 19/17 A2987 RMK A01 T01880168  RH  089%=      5-min Rain = 0
KCR1 150848Z 13006KT 19/17 A2987 RMK A01 T01880169  RH  089%=      5-min Rain = 0
KCR1 150849Z 13005KT 19/17 A2987 RMK A01 T01870168  RH  089%=      5-min Rain = 0
KCR1 150850Z 13004KT 19/17 A2987 RMK A01 T01870168  RH  089%=      5-min Rain = 0
KCR1 150851Z 14002KT 19/17 A2988 RMK A01 T01870169  RH  089%=      5-min Rain = 0
KCR1 150852Z 15001KT 19/17 A2988 RMK A01 T01880169  RH  089%=      5-min Rain = 0
KCR1 150853Z 15001KT 19/17 A2988 RMK A01 T01870169  RH  089%=      5-min Rain = 0
KCR1 150854Z 13002KT 19/17 A2988 RMK A01 T01870169  RH  089%=      5-min Rain = 0
KCR1 150855Z 13002KT 19/17 A2988 RMK A01 T01870169  RH  089%=      5-min Rain = 0
KCR1 150856Z 13002KT 19/17 A2988 RMK A01 T01870169  RH  089%=      5-min Rain = 0
KCR1 150857Z 13002KT 19/17 A2988 RMK A01 T01870169  RH  089%=      5-min Rain = 0
KCR1 150858Z 14002KT 19/17 A2988 RMK A01 T01880169  RH  089%=      5-min Rain = 0
KCR1 150859Z 11003KT 19/17 A2988 RMK A01 T01880169  RH  089%=      5-min Rain = 0
KCR1 150900Z 14002KT 19/17 A2988 RMK A01 T01880170  RH  089%=      5-min Rain = 0
KCR1 150901Z 14002KT 19/17 A2988 RMK A01 T01880169  RH  089%=      5-min Rain = 0
KCR1 150902Z 13003KT 19/17 A2988 RMK A01 T01880169  RH  089%=      5-min Rain = 0
KCR1 150903Z 16003KT 19/17 A2988 RMK A01 T01880169  RH  089%=      5-min Rain = 0
KCR1 150904Z 22003KT 19/17 A2988 RMK A01 T01870169  RH  089%=      5-min Rain = 0
KCR1 150905Z 19003KT 19/17 A2988 RMK A01 T01870169  RH  089%=      5-min Rain = 0
KCR1 150906Z 14003KT 19/17 A2988 RMK A01 T01870169  RH  089%=      5-min Rain = 0
KCR1 150907Z 15003KT 19/17 A2988 RMK A01 T01870169  RH  089%=      5-min Rain = 0
KCR1 150908Z 18003KT 19/17 A2988 RMK A01 T01870169  RH  089%=      5-min Rain = 0
KCR1 150909Z 19004KT 19/17 A2988 RMK A01 T01860168  RH  090%=      5-min Rain = 0
KCR1 150910Z 19004KT 19/17 A2988 RMK A01 T01850168  RH  090%=      5-min Rain = 0
KCR1 150911Z 17004KT 19/17 A2988 RMK A01 T01850168  RH  090%=      5-min Rain = 0
KCR1 150912Z 16004KT 19/17 A2988 RMK A01 T01850168  RH  090%=      5-min Rain = 0
KCR1 150913Z 17004KT 18/17 A2988 RMK A01 T01840168  RH  090%=      5-min Rain = 0
KCR1 150914Z 18004KT 18/17 A2988 RMK A01 T01840167  RH  090%=      5-min Rain = 0
KCR1 150915Z 20005KT 18/17 A2988 RMK A01 T01820166  RH  090%=      5-min Rain = 0
KCR1 150916Z 18004KT 18/17 A2988 RMK A01 T01820168  RH  091%=      5-min Rain = 0
KCR1 150917Z 17003KT 18/17 A2988 RMK A01 T01820168  RH  091%=      5-min Rain = 0
KCR1 150918Z 18003KT 18/17 A2988 RMK A01 T01820167  RH  091%=      5-min Rain = 0
KCR1 150919Z 18004KT 18/17 A2988 RMK A01 T01820167  RH  091%=      5-min Rain = 0
KCR1 150920Z 17004KT 18/17 A2988 RMK A01 T01810167  RH  091%=      5-min Rain = 0
KCR1 150921Z 17003KT 18/17 A2988 RMK A01 T01810167  RH  091%=      5-min Rain = 0
KCR1 150922Z 18003KT 18/17 A2988 RMK A01 T01810167  RH  091%=      5-min Rain = 0
KCR1 150923Z 18003KT 18/17 A2988 RMK A01 T01800167  RH  092%=      5-min Rain = 0
KCR1 150924Z 18004KT 18/17 A2988 RMK A01 T01800167  RH  092%=      5-min Rain = 0
KCR1 150925Z 17004KT 18/17 A2988 RMK A01 T01800167  RH  092%=      5-min Rain = 0
KCR1 150926Z 17005KT 18/17 A2988 RMK A01 T01800167  RH  092%=      5-min Rain = 0
KCR1 150927Z 17004KT 18/17 A2988 RMK A01 T01800167  RH  092%=      5-min Rain = 0
KCR1 150928Z 18003KT 18/17 A2988 RMK A01 T01790167  RH  093%=      5-min Rain = 0
KCR1 150929Z 19002KT 18/17 A2988 RMK A01 T01790167  RH  093%=      5-min Rain = 0
KCR1 150930Z 19002KT 18/17 A2988 RMK A01 T01790167  RH  093%=      5-min Rain = 0
KCR1 150931Z 20002KT 18/17 A2988 RMK A01 T01790167  RH  092%=      5-min Rain = 0
KCR1 150932Z 20002KT 18/17 A2988 RMK A01 T01790167  RH  092%=      5-min Rain = 0
KCR1 150933Z 18002KT 18/17 A2988 RMK A01 T01790167  RH  093%=      5-min Rain = 0
KCR1 150934Z 18002KT 18/17 A2988 RMK A01 T01800168  RH  093%=      5-min Rain = 0
KCR1 150935Z 18002KT 18/17 A2988 RMK A01 T01810169  RH  093%=      5-min Rain = 0
KCR1 150936Z 18002KT 18/17 A2988 RMK A01 T01810169  RH  092%=      5-min Rain = 0
KCR1 150937Z 18002KT 18/17 A2988 RMK A01 T01820169  RH  092%=      5-min Rain = 0
KCR1 150938Z 17002KT 18/17 A2988 RMK A01 T01820169  RH  092%=      5-min Rain = 0
KCR1 150939Z 16002KT 18/17 A2988 RMK A01 T01820169  RH  092%=      5-min Rain = 0
KCR1 150940Z 14002KT 18/17 A2988 RMK A01 T01820169  RH  092%=      5-min Rain = 0
KCR1 150941Z 14003KT 18/17 A2988 RMK A01 T01820169  RH  092%=      5-min Rain = 0
KCR1 150942Z 15003KT 18/17 A2988 RMK A01 T01820169  RH  092%=      5-min Rain = 0
KCR1 150943Z 14003KT 18/17 A2988 RMK A01 T01820169  RH  092%=      5-min Rain = 0
KCR1 150944Z 14003KT 18/17 A2988 RMK A01 T01820169  RH  092%=      5-min Rain = 0
KCR1 150945Z 13003KT 18/17 A2988 RMK A01 T01820168  RH  092%=      5-min Rain = 0
KCR1 150946Z 13003KT 18/17 A2988 RMK A01 T01810168  RH  092%=      5-min Rain = 0
KCR1 150947Z 12003KT 18/17 A2988 RMK A01 T01810168  RH  092%=      5-min Rain = 0
KCR1 150948Z 11003KT 18/17 A2988 RMK A01 T01810168  RH  092%=      5-min Rain = 0
KCR1 150949Z 11004KT 18/17 A2988 RMK A01 T01810169  RH  093%=      5-min Rain = 0
KCR1 150950Z 10004KT 18/17 A2988 RMK A01 T01810170  RH  093%=      5-min Rain = 0
KCR1 150951Z 10004KT 18/17 A2988 RMK A01 T01810171  RH  094%=      5-min Rain = 0
KCR1 150952Z 10003KT 18/17 A2988 RMK A01 T01810171  RH  094%=      5-min Rain = 0
KCR1 150953Z 08003KT 18/17 A2988 RMK A01 T01810172  RH  094%=      5-min Rain = 0
KCR1 150954Z 07003KT 18/17 A2989 RMK A01 T01820171  RH  094%=      5-min Rain = 0
KCR1 150955Z 07003KT 18/17 A2989 RMK A01 T01820170  RH  093%=      5-min Rain = 0
KCR1 150956Z 08003KT 18/17 A2989 RMK A01 T01810170  RH  093%=      5-min Rain = 0
KCR1 150957Z 09004KT 18/17 A2989 RMK A01 T01810169  RH  093%=      5-min Rain = 0
KCR1 150958Z 09004KT 18/17 A2989 RMK A01 T01800169  RH  093%=      5-min Rain = 0
KCR1 150959Z 09004KT 18/17 A2989 RMK A01 T01800170  RH  094%=      5-min Rain = 0
KCR1 151000Z 10004KT 18/17 A2989 RMK A01 T01800170  RH  094%=      5-min Rain = 0
KCR1 151001Z 09003KT 18/17 A2989 RMK A01 T01800170  RH  094%=      5-min Rain = 0
KCR1 151002Z 09003KT 18/17 A2989 RMK A01 T01790170  RH  094%=      5-min Rain = 0
KCR1 151003Z 10003KT 18/17 A2989 RMK A01 T01790170  RH  094%=      5-min Rain = 0
KCR1 151004Z 10003KT 18/17 A2989 RMK A01 T01790170  RH  094%=      5-min Rain = 0
KCR1 151005Z 09003KT 18/17 A2989 RMK A01 T01790170  RH  094%=      5-min Rain = 0
KCR1 151006Z 09003KT 18/17 A2989 RMK A01 T01790170  RH  095%=      5-min Rain = 0
KCR1 151007Z 08003KT 18/17 A2989 RMK A01 T01790170  RH  095%=      5-min Rain = 0
KCR1 151008Z 08003KT 18/17 A2989 RMK A01 T01790170  RH  095%=      5-min Rain = 0
KCR1 151009Z 08003KT 18/17 A2989 RMK A01 T01780170  RH  095%=      5-min Rain = 0
KCR1 151010Z 08003KT 18/17 A2989 RMK A01 T01780170  RH  095%=      5-min Rain = 0
KCR1 151011Z 08003KT 18/17 A2989 RMK A01 T01780170  RH  095%=      5-min Rain = 0
KCR1 151012Z 09003KT 18/17 A2989 RMK A01 T01780170  RH  095%=      5-min Rain = 0
KCR1 151013Z 09003KT 18/17 A2989 RMK A01 T01780170  RH  095%=      5-min Rain = 0
KCR1 151014Z 10003KT 18/17 A2989 RMK A01 T01780170  RH  095%=      5-min Rain = 0
KCR1 151015Z 10003KT 18/17 A2989 RMK A01 T01780170  RH  095%=      5-min Rain = 0
KCR1 151016Z 10004KT 18/17 A2989 RMK A01 T01780170  RH  095%=      5-min Rain = 0
KCR1 151017Z 10004KT 18/17 A2989 RMK A01 T01770170  RH  095%=      5-min Rain = 0
KCR1 151018Z 10003KT 18/17 A2989 RMK A01 T01770170  RH  095%=      5-min Rain = 0
KCR1 151019Z 10003KT 18/17 A2989 RMK A01 T01770170  RH  095%=      5-min Rain = 0
KCR1 151020Z 09003KT 18/17 A2989 RMK A01 T01770170  RH  096%=      5-min Rain = 0
KCR1 151021Z 09003KT 18/17 A2989 RMK A01 T01770171  RH  096%=      5-min Rain = 0
KCR1 151022Z 09004KT 18/17 A299 RMK A01 T01770171  RH  096%=      5-min Rain = 0
KCR1 151023Z 09004KT 18/17 A299 RMK A01 T01780171  RH  096%=      5-min Rain = 0
KCR1 151024Z 09004KT 18/17 A299 RMK A01 T01780171  RH  096%=      5-min Rain = 0
KCR1 151025Z 09005KT 18/17 A299 RMK A01 T01780171  RH  096%=      5-min Rain = 0
KCR1 151026Z 08005KT 18/17 A299 RMK A01 T01780171  RH  096%=      5-min Rain = 0
KCR1 151027Z 08005KT 18/17 A299 RMK A01 T01780171  RH  096%=      5-min Rain = 0
KCR1 151028Z 08005KT 18/17 A299 RMK A01 T01780171  RH  096%=      5-min Rain = 0
KCR1 151029Z 08005KT 18/17 A299 RMK A01 T01780171  RH  096%=      5-min Rain = 0
KCR1 151030Z 07006KT 18/17 A299 RMK A01 T01780171  RH  096%=      5-min Rain = 0
KCR1 151031Z 06006KT 18/17 A299 RMK A01 T01780171  RH  096%=      5-min Rain = 0
KCR1 151032Z 06006KT 18/17 A299 RMK A01 T01780171  RH  096%=      5-min Rain = 0
KCR1 151033Z 06006KT 18/17 A299 RMK A01 T01770171  RH  096%=      5-min Rain = 0
KCR1 151034Z 06006KT 18/17 A299 RMK A01 T01770171  RH  096%=      5-min Rain = 0
KCR1 151035Z 05007KT 18/17 A299 RMK A01 T01770171  RH  096%=      5-min Rain = 0
KCR1 151036Z 06007KT 18/17 A2991 RMK A01 T01780172  RH  096%=      5-min Rain = 0
KCR1 151037Z 05007KT 18/17 A2991 RMK A01 T01780172  RH  096%=      5-min Rain = 0
KCR1 151038Z 05006KT 18/17 A2991 RMK A01 T01780173  RH  096%=      5-min Rain = 0
KCR1 151039Z 04007KT 18/17 A2991 RMK A01 T01780173  RH  096%=      5-min Rain = 0
KCR1 151040Z 05007KT 18/17 A2991 RMK A01 T01780173  RH  097%=      5-min Rain = 0
KCR1 151041Z 05007KT 18/17 A2991 RMK A01 T01790173  RH  097%=      5-min Rain = 0
KCR1 151042Z 05007KT 18/17 A2991 RMK A01 T01780173  RH  097%=      5-min Rain = 0
KCR1 151043Z 05007KT 18/17 A2992 RMK A01 T01780173  RH  097%=      5-min Rain = 0
KCR1 151044Z 05008KT 18/17 A2992 RMK A01 T01790173  RH  097%=      5-min Rain = 0
KCR1 151045Z 05009KT 18/17 A2992 RMK A01 T01790173  RH  097%=      5-min Rain = 0
KCR1 151046Z 05010KT 18/17 A2992 RMK A01 T01790173  RH  097%=      5-min Rain = 0
KCR1 151047Z 05010KT 18/17 A2992 RMK A01 T01790173  RH  096%=      5-min Rain = 0
KCR1 151048Z 05009KT 18/17 A2992 RMK A01 T01790173  RH  096%=      5-min Rain = 0
KCR1 151049Z 05009KT 18/17 A2992 RMK A01 T01790173  RH  096%=      5-min Rain = 0
KCR1 151050Z 05009KT 18/17 A2992 RMK A01 T01790173  RH  096%=      5-min Rain = 0
KCR1 151051Z 05008KT 18/17 A2992 RMK A01 T01790173  RH  096%=      5-min Rain = 0
KCR1 151052Z 05008KT 18/17 A2992 RMK A01 T01790173  RH  096%=      5-min Rain = 0
KCR1 151053Z 06007KT 18/17 A2992 RMK A01 T01790173  RH  096%=      5-min Rain = 0
KCR1 151054Z 06007KT 18/17 A2992 RMK A01 T01790173  RH  096%=      5-min Rain = 0
KCR1 151055Z 06006KT 18/17 A2991 RMK A01 T01790173  RH  097%=      5-min Rain = 0
KCR1 151056Z 07005KT 18/17 A2991 RMK A01 T01790173  RH  097%=      5-min Rain = 0
KCR1 151057Z 07005KT 18/17 A2991 RMK A01 T01790174  RH  097%=      5-min Rain = 0
KCR1 151058Z 08005KT 18/17 A2991 RMK A01 T01790174  RH  097%=      5-min Rain = 0
KCR1 151059Z 08004KT 18/17 A2991 RMK A01 T01790174  RH  097%=      5-min Rain = 0
KCR1 151100Z 09004KT 18/17 A2991 RMK A01 T01790173  RH  097%=      5-min Rain = 0
KCR1 151101Z 09005KT 18/17 A2991 RMK A01 T01790174  RH  097%=      5-min Rain = 0
KCR1 151102Z 10005KT 18/17 A2991 RMK A01 T01790174  RH  097%=      5-min Rain = 0
KCR1 151103Z 10004KT 18/17 A2991 RMK A01 T01790174  RH  097%=      5-min Rain = 0
KCR1 151104Z 10005KT 18/18 A2991 RMK A01 T01800175  RH  097%=      5-min Rain = 0
KCR1 151105Z 09004KT 18/18 A2991 RMK A01 T01800176  RH  097%=      5-min Rain = 0
KCR1 151106Z 09004KT 18/18 A2991 RMK A01 T01810176  RH  097%=      5-min Rain = 0
KCR1 151107Z 09004KT 18/18 A2991 RMK A01 T01820177  RH  097%=      5-min Rain = 0
KCR1 151108Z 08004KT 18/18 A2991 RMK A01 T01820176  RH  096%=      5-min Rain = 0
KCR1 151109Z 07004KT 18/18 A2991 RMK A01 T01820176  RH  096%=      5-min Rain = 0
KCR1 151110Z 07004KT 18/18 A2991 RMK A01 T01820176  RH  096%=      5-min Rain = 0
KCR1 151111Z 06005KT 18/18 A2992 RMK A01 T01820175  RH  096%=      5-min Rain = 0
KCR1 151112Z 05006KT 18/17 A2992 RMK A01 T01810174  RH  096%=      5-min Rain = 0
KCR1 151113Z 05007KT 18/17 A2992 RMK A01 T01800174  RH  096%=      5-min Rain = 0
KCR1 151114Z 05007KT 18/17 A2992 RMK A01 T01800174  RH  096%=      5-min Rain = 0
KCR1 151115Z 04008KT 18/17 A2992 RMK A01 T01790173  RH  096%=      5-min Rain = 0
KCR1 151116Z 05007KT 18/17 A2992 RMK A01 T01800174  RH  096%=      5-min Rain = 0
KCR1 151117Z 05008KT 18/17 A2992 RMK A01 T01800174  RH  097%=      5-min Rain = 0
KCR1 151118Z 05007KT 18/18 A2992 RMK A01 T01800175  RH  097%=      5-min Rain = 0
KCR1 151119Z 05007KT 18/18 A2992 RMK A01 T01800175  RH  097%=      5-min Rain = 0
KCR1 151120Z 05005KT 18/18 A2992 RMK A01 T01800175  RH  097%=      5-min Rain = 0
KCR1 151121Z 05006KT 18/18 A2992 RMK A01 T01800175  RH  097%=      5-min Rain = 0
KCR1 151122Z 06005KT 18/18 A2992 RMK A01 T01800175  RH  097%=      5-min Rain = 0
KCR1 151123Z 06005KT 18/18 A2992 RMK A01 T01800176  RH  097%=      5-min Rain = 0
KCR1 151124Z 07004KT 18/18 A2992 RMK A01 T01810176  RH  097%=      5-min Rain = 0
KCR1 151125Z 08005KT 18/18 A2992 RMK A01 T01810176  RH  097%=      5-min Rain = 0
KCR1 151126Z 08004KT 18/18 A2992 RMK A01 T01800176  RH  097%=      5-min Rain = 0
KCR1 151127Z 09004KT 18/18 A2992 RMK A01 T01810176  RH  097%=      5-min Rain = 0
KCR1 151128Z 09005KT 18/18 A2992 RMK A01 T01810176  RH  097%=      5-min Rain = 0
KCR1 151129Z 09004KT 18/18 A2992 RMK A01 T01810176  RH  097%=      5-min Rain = 0
KCR1 151130Z 09004KT 18/18 A2992 RMK A01 T01810176  RH  097%=      5-min Rain = 0
KCR1 151131Z 08005KT 18/18 A2992 RMK A01 T01810176  RH  097%=      5-min Rain = 0
KCR1 151132Z 07005KT 18/18 A2992 RMK A01 T01810176  RH  097%=      5-min Rain = 0
KCR1 151133Z 07006KT 18/18 A2992 RMK A01 T01800176  RH  097%=      5-min Rain = 0
KCR1 151134Z 07007KT 18/18 A2992 RMK A01 T01810176  RH  097%=      5-min Rain = 0
KCR1 151135Z 06008KT 18/18 A2992 RMK A01 T01810176  RH  097%=      5-min Rain = 0
KCR1 151136Z 06008KT 18/18 A2993 RMK A01 T01800176  RH  097%=      5-min Rain = 0
KCR1 151137Z 06008KT 18/18 A2993 RMK A01 T01810176  RH  097%=      5-min Rain = 0
KCR1 151138Z 06009KT 18/18 A2993 RMK A01 T01810177  RH  097%=      5-min Rain = 0
KCR1 151139Z 06009KT 18/18 A2993 RMK A01 T01810177  RH  097%=      5-min Rain = 0
KCR1 151140Z 06008KT 18/18 A2993 RMK A01 T01820177  RH  097%=      5-min Rain = 0
KCR1 151141Z 07008KT 18/18 A2993 RMK A01 T01820177  RH  097%=      5-min Rain = 0
KCR1 151142Z 07007KT 18/18 A2993 RMK A01 T01820178  RH  097%=      5-min Rain = 0
KCR1 151143Z 08007KT 18/18 A2993 RMK A01 T01820178  RH  097%=      5-min Rain = 0
KCR1 151144Z 08008KT 18/18 A2993 RMK A01 T01820178  RH  097%=      5-min Rain = 0
KCR1 151145Z 09008KT 18/18 A2992 RMK A01 T01820179  RH  098%=      5-min Rain = 0
KCR1 151146Z 09007KT 18/18 A2992 RMK A01 T01830179  RH  098%=      5-min Rain = 0
KCR1 151147Z 09007KT 18/18 A2993 RMK A01 T01830179  RH  097%=      5-min Rain = 0
KCR1 151148Z 09008KT 18/18 A2993 RMK A01 T01830179  RH  097%=      5-min Rain = 0
KCR1 151149Z 09008KT 18/18 A2993 RMK A01 T01830179  RH  097%=      5-min Rain = 0
KCR1 151150Z 09008KT 18/18 A2993 RMK A01 T01830179  RH  097%=      5-min Rain = 0
KCR1 151151Z 08007KT 18/18 A2993 RMK A01 T01830179  RH  097%=      5-min Rain = 0
KCR1 151152Z 09007KT 18/18 A2993 RMK A01 T01830179  RH  097%=      5-min Rain = 0
KCR1 151153Z 08007KT 18/18 A2993 RMK A01 T01830179  RH  097%=      5-min Rain = 0
KCR1 151154Z 08006KT 18/18 A2993 RMK A01 T01830179  RH  097%=      5-min Rain = 0
KCR1 151155Z 07006KT 18/18 A2993 RMK A01 T01830179  RH  097%=      5-min Rain = 0
KCR1 151156Z 07007KT 18/18 A2993 RMK A01 T01830179  RH  097%=      5-min Rain = 0
KCR1 151157Z 07006KT 18/18 A2993 RMK A01 T01840179  RH  097%=      5-min Rain = 0
KCR1 151158Z 07006KT 18/18 A2994 RMK A01 T01830179  RH  097%=      5-min Rain = 0
KCR1 151159Z 07006KT 18/18 A2994 RMK A01 T01830179  RH  097%=      5-min Rain = 0
KCR1 151200Z 07005KT 18/18 A2994 RMK A01 T01830179  RH  097%=      5-min Rain = 0
KCR1 151201Z 08005KT 18/18 A2994 RMK A01 T01830179  RH  097%=      5-min Rain = 0
KCR1 151202Z 08006KT 18/18 A2994 RMK A01 T01830179  RH  097%=      5-min Rain = 0
KCR1 151203Z 09006KT 18/18 A2994 RMK A01 T01830178  RH  097%=      5-min Rain = 0
KCR1 151204Z 09007KT 18/18 A2994 RMK A01 T01830179  RH  097%=      5-min Rain = 0
KCR1 151205Z 09006KT 18/18 A2994 RMK A01 T01840179  RH  097%=      5-min Rain = 0
KCR1 151206Z 10006KT 18/18 A2994 RMK A01 T01830179  RH  097%=      5-min Rain = 0
KCR1 151207Z 10006KT 18/18 A2994 RMK A01 T01840179  RH  097%=      5-min Rain = 0
KCR1 151208Z 10007KT 18/18 A2994 RMK A01 T01840179  RH  097%=      5-min Rain = 0
KCR1 151209Z 10007KT 19/18 A2994 RMK A01 T01850180  RH  097%=      5-min Rain = 0
KCR1 151210Z 10007KT 19/18 A2994 RMK A01 T01850180  RH  097%=      5-min Rain = 0
KCR1 151211Z 10007KT 19/18 A2994 RMK A01 T01860180  RH  097%=      5-min Rain = 0
KCR1 151212Z 10006KT 19/18 A2994 RMK A01 T01860180  RH  097%=      5-min Rain = 0
KCR1 151213Z 09006KT 19/18 A2994 RMK A01 T01860181  RH  097%=      5-min Rain = 0
KCR1 151214Z 09005KT 19/18 A2994 RMK A01 T01860181  RH  097%=      5-min Rain = 0
KCR1 151215Z 09007KT 19/18 A2994 RMK A01 T01870181  RH  097%=      5-min Rain = 0
KCR1 151216Z 09007KT 19/18 A2994 RMK A01 T01870181  RH  097%=      5-min Rain = 0
KCR1 151217Z 09006KT 19/18 A2995 RMK A01 T01870181  RH  097%=      5-min Rain = 0
KCR1 151218Z 09006KT 19/18 A2995 RMK A01 T01870181  RH  096%=      5-min Rain = 0
KCR1 151219Z 09006KT 19/18 A2995 RMK A01 T01870181  RH  096%=      5-min Rain = 0
KCR1 151220Z 09006KT 19/18 A2995 RMK A01 T01870181  RH  097%=      5-min Rain = 0
KCR1 151221Z 09006KT 19/18 A2995 RMK A01 T01870182  RH  097%=      5-min Rain = 0
KCR1 151222Z 10006KT 19/18 A2994 RMK A01 T01870182  RH  097%=      5-min Rain = 0
KCR1 151223Z 11006KT 19/18 A2994 RMK A01 T01870182  RH  097%=      5-min Rain = 0
KCR1 151224Z 11006KT 19/18 A2994 RMK A01 T01880182  RH  097%=      5-min Rain = 0
KCR1 151225Z 12005KT 19/18 A2994 RMK A01 T01880183  RH  096%=      5-min Rain = 0
KCR1 151226Z 12007KT 19/18 A2994 RMK A01 T01890183  RH  096%=      5-min Rain = 0
KCR1 151227Z 12006KT 19/18 A2994 RMK A01 T01890184  RH  096%=      5-min Rain = 0
KCR1 151228Z 12006KT 19/18 A2994 RMK A01 T01900184  RH  096%=      5-min Rain = 0
KCR1 151229Z 12006KT 19/18 A2994 RMK A01 T01900184  RH  096%=      5-min Rain = 0
KCR1 151230Z 13005KT 19/18 A2994 RMK A01 T01910184  RH  096%=      5-min Rain = 0
KCR1 151231Z 12006KT 19/19 A2994 RMK A01 T01910185  RH  096%=      5-min Rain = 0
KCR1 151232Z 12005KT 19/19 A2995 RMK A01 T01920185  RH  096%=      5-min Rain = 0
KCR1 151233Z 11006KT 19/19 A2995 RMK A01 T01930185  RH  096%=      5-min Rain = 0
KCR1 151234Z 12006KT 19/19 A2995 RMK A01 T01930185  RH  095%=      5-min Rain = 0
KCR1 151235Z 11007KT 19/19 A2995 RMK A01 T01930185  RH  095%=      5-min Rain = 0
KCR1 151236Z 11007KT 19/19 A2995 RMK A01 T01940185  RH  095%=      5-min Rain = 0
KCR1 151237Z 11007KT 19/19 A2995 RMK A01 T01940185  RH  095%=      5-min Rain = 0
KCR1 151238Z 10007KT 19/19 A2995 RMK A01 T01940186  RH  095%=      5-min Rain = 0
KCR1 151239Z 10007KT 20/19 A2996 RMK A01 T01950185  RH  094%=      5-min Rain = 0
KCR1 151240Z 10007KT 20/19 A2996 RMK A01 T01950185  RH  094%=      5-min Rain = 0
KCR1 151241Z 11008KT 20/19 A2996 RMK A01 T01950186  RH  094%=      5-min Rain = 0
KCR1 151242Z 11008KT 20/19 A2996 RMK A01 T01950185  RH  094%=      5-min Rain = 0
KCR1 151243Z 11008KT 20/19 A2996 RMK A01 T01960186  RH  094%=      5-min Rain = 0
KCR1 151244Z 12009KT 20/19 A2996 RMK A01 T01960186  RH  094%=      5-min Rain = 0
KCR1 151245Z 11009KT 20/19 A2996 RMK A01 T01960186  RH  094%=      5-min Rain = 0
KCR1 151246Z 13006KT 20/19 A2996 RMK A01 T01960186  RH  094%=      5-min Rain = 0
KCR1 151247Z 13006KT 20/19 A2996 RMK A01 T01960187  RH  094%=      5-min Rain = 0
KCR1 151248Z 13008KT 20/19 A2996 RMK A01 T01970186  RH  094%=      5-min Rain = 0
KCR1 151249Z 12007KT 20/19 A2996 RMK A01 T01970186  RH  093%=      5-min Rain = 0
KCR1 151250Z 13008KT 20/19 A2996 RMK A01 T01970186  RH  093%=      5-min Rain = 0
KCR1 151251Z 13007KT 20/19 A2996 RMK A01 T01980187  RH  093%=      5-min Rain = 0
KCR1 151252Z 13007KT 20/19 A2996 RMK A01 T01980187  RH  093%=      5-min Rain = 0
KCR1 151253Z 13008KT 20/19 A2996 RMK A01 T01990187  RH  093%=      5-min Rain = 0
KCR1 151254Z 13007KT 20/19 A2996 RMK A01 T01990187  RH  093%=      5-min Rain = 0
KCR1 151255Z 12009KT 20/19 A2996 RMK A01 T01990187  RH  093%=      5-min Rain = 0
KCR1 151256Z 13007KT 20/19 A2996 RMK A01 T01990186  RH  092%=      5-min Rain = 0
KCR1 151257Z 12006KT 20/19 A2996 RMK A01 T01990187  RH  093%=      5-min Rain = 0
KCR1 151258Z 12007KT 20/19 A2996 RMK A01 T02000188  RH  093%=      5-min Rain = 0
KCR1 151259Z 12006KT 20/19 A2996 RMK A01 T02000187  RH  092%=      5-min Rain = 0
KCR1 151300Z 12006KT 20/19 A2996 RMK A01 T02010187  RH  092%=      5-min Rain = 0
KCR1 151301Z 13007KT 20/19 A2996 RMK A01 T02010187  RH  092%=      5-min Rain = 0
KCR1 151302Z 13006KT 20/19 A2996 RMK A01 T02010186  RH  091%=      5-min Rain = 0
KCR1 151303Z 12005KT 20/19 A2996 RMK A01 T02010188  RH  092%=      5-min Rain = 0
KCR1 151304Z 13005KT 20/19 A2996 RMK A01 T02020188  RH  092%=      5-min Rain = 0
KCR1 151305Z 13006KT 20/19 A2996 RMK A01 T02020188  RH  091%=      5-min Rain = 0
KCR1 151306Z 13005KT 20/19 A2996 RMK A01 T02030187  RH  091%=      5-min Rain = 0
KCR1 151307Z 14005KT 20/19 A2996 RMK A01 T02030188  RH  091%=      5-min Rain = 0
KCR1 151308Z 14005KT 20/19 A2996 RMK A01 T02040189  RH  091%=      5-min Rain = 0
KCR1 151309Z 14007KT 21/19 A2996 RMK A01 T02050189  RH  090%=      5-min Rain = 0
KCR1 151310Z 14007KT 21/19 A2996 RMK A01 T02060188  RH  089%=      5-min Rain = 0
KCR1 151311Z 14006KT 21/19 A2996 RMK A01 T02060189  RH  090%=      5-min Rain = 0
KCR1 151312Z 14007KT 21/19 A2996 RMK A01 T02070190  RH  090%=      5-min Rain = 0
KCR1 151313Z 14006KT 21/19 A2996 RMK A01 T02080189  RH  089%=      5-min Rain = 0
KCR1 151314Z 13006KT 21/19 A2996 RMK A01 T02090190  RH  089%=      5-min Rain = 0
KCR1 151315Z 12006KT 21/19 A2996 RMK A01 T02090188  RH  088%=      5-min Rain = 0
KCR1 151316Z 13007KT 21/19 A2996 RMK A01 T02090188  RH  088%=      5-min Rain = 0
KCR1 151317Z 12007KT 21/19 A2996 RMK A01 T02100189  RH  088%=      5-min Rain = 0
KCR1 151318Z 14007KT 21/19 A2996 RMK A01 T02100188  RH  087%=      5-min Rain = 0
KCR1 151319Z 14008KT 21/19 A2997 RMK A01 T02100189  RH  088%=      5-min Rain = 0
KCR1 151320Z 15007KT 21/19 A2996 RMK A01 T02100188  RH  087%=      5-min Rain = 0
KCR1 151321Z 14007KT 21/19 A2996 RMK A01 T02100189  RH  087%=      5-min Rain = 0
KCR1 151322Z 13007KT 21/19 A2996 RMK A01 T02110189  RH  087%=      5-min Rain = 0
KCR1 151323Z 12006KT 21/19 A2996 RMK A01 T02110188  RH  087%=      5-min Rain = 0
KCR1 151324Z 13005KT 21/19 A2996 RMK A01 T02110189  RH  087%=      5-min Rain = 0
KCR1 151325Z 15006KT 21/19 A2996 RMK A01 T02130189  RH  087%=      5-min Rain = 0
KCR1 151326Z 16005KT 21/19 A2996 RMK A01 T02130189  RH  086%=      5-min Rain = 0
KCR1 151327Z 14005KT 21/19 A2996 RMK A01 T02140190  RH  086%=      5-min Rain = 0
KCR1 151328Z 14006KT 22/19 A2996 RMK A01 T02150190  RH  085%=      5-min Rain = 0
KCR1 151329Z 14007KT 22/19 A2996 RMK A01 T02150189  RH  085%=      5-min Rain = 0
KCR1 151330Z 14006KT 22/19 A2996 RMK A01 T02160188  RH  085%=      5-min Rain = 0
KCR1 151331Z 14004KT 22/19 A2996 RMK A01 T02160189  RH  085%=      5-min Rain = 0
KCR1 151332Z 15005KT 22/19 A2996 RMK A01 T02170192  RH  085%=      5-min Rain = 0
KCR1 151333Z 14005KT 22/19 A2996 RMK A01 T02190191  RH  084%=      5-min Rain = 0
KCR1 151334Z 14006KT 22/19 A2996 RMK A01 T02200190  RH  083%=      5-min Rain = 0
KCR1 151335Z 14006KT 22/19 A2996 RMK A01 T02210189  RH  082%=      5-min Rain = 0
KCR1 151336Z 14006KT 22/19 A2996 RMK A01 T02200188  RH  082%=      5-min Rain = 0
KCR1 151337Z 13006KT 22/19 A2996 RMK A01 T02190188  RH  083%=      5-min Rain = 0
KCR1 151338Z 14006KT 22/19 A2996 RMK A01 T02190189  RH  083%=      5-min Rain = 0
KCR1 151339Z 15005KT 22/19 A2996 RMK A01 T02200190  RH  083%=      5-min Rain = 0
KCR1 151340Z 15005KT 22/19 A2996 RMK A01 T02210189  RH  082%=      5-min Rain = 0
KCR1 151341Z 13004KT 22/19 A2996 RMK A01 T02220191  RH  082%=      5-min Rain = 0
KCR1 151342Z 13005KT 22/19 A2996 RMK A01 T02240191  RH  082%=      5-min Rain = 0
KCR1 151343Z 14005KT 22/19 A2996 RMK A01 T02240190  RH  081%=      5-min Rain = 0
KCR1 151344Z 15005KT 23/19 A2997 RMK A01 T02250191  RH  081%=      5-min Rain = 0
KCR1 151345Z 15004KT 23/19 A2997 RMK A01 T02250191  RH  081%=      5-min Rain = 0
KCR1 151346Z 14004KT 23/19 A2997 RMK A01 T02250190  RH  081%=      5-min Rain = 0
KCR1 151347Z 14004KT 23/19 A2997 RMK A01 T02260190  RH  080%=      5-min Rain = 0
KCR1 151348Z 13005KT 23/19 A2997 RMK A01 T02260190  RH  080%=      5-min Rain = 0
KCR1 151349Z 15004KT 23/19 A2997 RMK A01 T02270191  RH  080%=      5-min Rain = 0
KCR1 151350Z 14004KT 23/19 A2997 RMK A01 T02280191  RH  080%=      5-min Rain = 0
KCR1 151351Z 12004KT 23/19 A2997 RMK A01 T02270189  RH  079%=      5-min Rain = 0
KCR1 151352Z 14004KT 23/19 A2997 RMK A01 T02260189  RH  080%=      5-min Rain = 0
KCR1 151353Z 13005KT 23/19 A2997 RMK A01 T02250189  RH  080%=      5-min Rain = 0
KCR1 151354Z 13005KT 22/19 A2997 RMK A01 T02240189  RH  080%=      5-min Rain = 0
KCR1 151355Z 13005KT 22/19 A2997 RMK A01 T02230188  RH  080%=      5-min Rain = 0
KCR1 151356Z 14004KT 22/19 A2997 RMK A01 T02230188  RH  081%=      5-min Rain = 0
KCR1 151357Z 15004KT 22/19 A2997 RMK A01 T02240188  RH  080%=      5-min Rain = 0
KCR1 151358Z 15004KT 22/19 A2997 RMK A01 T02240190  RH  081%=      5-min Rain = 0
KCR1 151359Z 14004KT 22/19 A2997 RMK A01 T02230189  RH  081%=      5-min Rain = 0
KCR1 151400Z 14004KT 22/19 A2997 RMK A01 T02230188  RH  081%=      5-min Rain = 0
KCR1 151401Z 16004KT 22/19 A2997 RMK A01 T02230188  RH  080%=      5-min Rain = 0
KCR1 151402Z 15004KT 22/19 A2997 RMK A01 T02240188  RH  080%=      5-min Rain = 0
KCR1 151403Z 15004KT 22/19 A2997 RMK A01 T02240188  RH  080%=      5-min Rain = 0
KCR1 151404Z 15004KT 23/19 A2997 RMK A01 T02250188  RH  080%=      5-min Rain = 0
KCR1 151405Z 17004KT 23/19 A2997 RMK A01 T02250188  RH  079%=      5-min Rain = 0
KCR1 151406Z 16004KT 23/19 A2997 RMK A01 T02270188  RH  079%=      5-min Rain = 0
KCR1 151407Z 16006KT 23/19 A2997 RMK A01 T02290190  RH  079%=      5-min Rain = 0
KCR1 151408Z 16005KT 23/19 A2997 RMK A01 T02320188  RH  076%=      5-min Rain = 0
KCR1 151409Z 16005KT 23/19 A2997 RMK A01 T02330187  RH  075%=      5-min Rain = 0
KCR1 151410Z 15006KT 23/19 A2997 RMK A01 T02330186  RH  075%=      5-min Rain = 0
KCR1 151411Z 15005KT 24/19 A2997 RMK A01 T02350185  RH  074%=      5-min Rain = 0
KCR1 151412Z 14006KT 24/19 A2997 RMK A01 T02360185  RH  073%=      5-min Rain = 0
KCR1 151413Z 14005KT 24/19 A2997 RMK A01 T02370185  RH  073%=      5-min Rain = 0
KCR1 151414Z 13004KT 24/19 A2997 RMK A01 T02370186  RH  073%=      5-min Rain = 0
KCR1 151415Z 12002KT 24/19 A2997 RMK A01 T02370185  RH  073%=      5-min Rain = 0
KCR1 151416Z 17004KT 24/19 A2997 RMK A01 T02370185  RH  073%=      5-min Rain = 0
KCR1 151417Z 15004KT 24/19 A2997 RMK A01 T02400185  RH  072%=      5-min Rain = 0
KCR1 151418Z 15004KT 24/19 A2997 RMK A01 T02420186  RH  071%=      5-min Rain = 0
KCR1 151419Z 15003KT 24/19 A2997 RMK A01 T02440186  RH  070%=      5-min Rain = 0
KCR1 151420Z 17004KT 25/18 A2997 RMK A01 T02450183  RH  068%=      5-min Rain = 0
KCR1 151421Z 14004KT 25/18 A2997 RMK A01 T02450184  RH  069%=      5-min Rain = 0
KCR1 151422Z 14004KT 25/18 A2997 RMK A01 T02450184  RH  068%=      5-min Rain = 0
KCR1 151423Z 14003KT 25/18 A2997 RMK A01 T02450183  RH  068%=      5-min Rain = 0
KCR1 151424Z 16004KT 25/18 A2997 RMK A01 T02450181  RH  068%=      5-min Rain = 0
KCR1 151425Z 18003KT 25/18 A2997 RMK A01 T02450183  RH  068%=      5-min Rain = 0
KCR1 151426Z 18005KT 25/18 A2998 RMK A01 T02460182  RH  068%=      5-min Rain = 0
KCR1 151427Z 15004KT 25/18 A2998 RMK A01 T02460180  RH  067%=      5-min Rain = 0
KCR1 151428Z 16002KT 25/18 A2998 RMK A01 T02470179  RH  066%=      5-min Rain = 0
KCR1 151429Z 14003KT 25/18 A2998 RMK A01 T02470178  RH  065%=      5-min Rain = 0
KCR1 151430Z 17004KT 25/18 A2998 RMK A01 T02480179  RH  065%=      5-min Rain = 0
KCR1 151431Z 16005KT 25/18 A2998 RMK A01 T02490176  RH  064%=      5-min Rain = 0
KCR1 151432Z 15004KT 25/18 A2998 RMK A01 T02490176  RH  064%=      5-min Rain = 0
KCR1 151433Z 14003KT 25/18 A2998 RMK A01 T02500176  RH  064%=      5-min Rain = 0
KCR1 151434Z 16004KT 25/18 A2998 RMK A01 T02490178  RH  064%=      5-min Rain = 0
KCR1 151435Z 17005KT 25/17 A2998 RMK A01 T02500174  RH  063%=      5-min Rain = 0
KCR1 151436Z 17004KT 25/17 A2998 RMK A01 T02500174  RH  063%=      5-min Rain = 0
KCR1 151437Z 16003KT 25/17 A2998 RMK A01 T02510174  RH  062%=      5-min Rain = 0
KCR1 151438Z 19003KT 25/17 A2998 RMK A01 T02500174  RH  062%=      5-min Rain = 0
KCR1 151439Z 17004KT 25/17 A2998 RMK A01 T02510174  RH  063%=      5-min Rain = 0
KCR1 151440Z 15004KT 25/18 A2998 RMK A01 T02530178  RH  063%=      5-min Rain = 0
KCR1 151441Z 16004KT 26/17 A2998 RMK A01 T02550173  RH  061%=      5-min Rain = 0
KCR1 151442Z 17004KT 26/17 A2998 RMK A01 T02550173  RH  060%=      5-min Rain = 0
KCR1 151443Z 16006KT 26/17 A2998 RMK A01 T02550172  RH  060%=      5-min Rain = 0
KCR1 151444Z 17004KT 26/17 A2998 RMK A01 T02550170  RH  059%=      5-min Rain = 0
KCR1 151445Z 18003KT 26/17 A2998 RMK A01 T02560172  RH  060%=      5-min Rain = 0
KCR1 151446Z 18004KT 26/17 A2998 RMK A01 T02570173  RH  060%=      5-min Rain = 0
KCR1 151447Z 18005KT 26/17 A2998 RMK A01 T02590174  RH  059%=      5-min Rain = 0
KCR1 151448Z 17008KT 26/17 A2998 RMK A01 T02590168  RH  057%=      5-min Rain = 0
KCR1 151449Z 17008KT 26/16 A2998 RMK A01 T02590164  RH  056%=      5-min Rain = 0
KCR1 151450Z 17010KT 26/17 A2999 RMK A01 T02590165  RH  056%=      5-min Rain = 0
KCR1 151451Z 16009KT 26/17 A2999 RMK A01 T02580165  RH  056%=      5-min Rain = 0
KCR1 151452Z 15008KT 26/16 A2999 RMK A01 T02580163  RH  056%=      5-min Rain = 0
KCR1 151453Z 15009KT 26/16 A2999 RMK A01 T02570163  RH  056%=      5-min Rain = 0
KCR1 151454Z 15007KT 26/16 A2999 RMK A01 T02570163  RH  056%=      5-min Rain = 0
KCR1 151455Z 15007KT 26/16 A2999 RMK A01 T02570163  RH  056%=      5-min Rain = 0
KCR1 151456Z 15005KT 26/16 A2999 RMK A01 T02570162  RH  056%=      5-min Rain = 0
KCR1 151457Z 15004KT 26/16 A2999 RMK A01 T02560163  RH  056%=      5-min Rain = 0
KCR1 151458Z 15003KT 26/17 A2999 RMK A01 T02560166  RH  057%=      5-min Rain = 0
KCR1 151459Z 15005KT 26/17 A2999 RMK A01 T02570166  RH  057%=      5-min Rain = 0
KCR1 151500Z 14006KT 26/17 A2999 RMK A01 T02580167  RH  057%=      5-min Rain = 0
KCR1 151501Z 14005KT 26/17 A2999 RMK A01 T02570166  RH  057%=      5-min Rain = 0
KCR1 151502Z 15004KT 26/17 A2999 RMK A01 T02550165  RH  057%=      5-min Rain = 0
KCR1 151503Z 16005KT 25/17 A30 RMK A01 T02540166  RH  058%=      5-min Rain = 0
KCR1 151504Z 15004KT 26/17 A30 RMK A01 T02550168  RH  059%=      5-min Rain = 0
KCR1 151505Z 15004KT 26/17 A30 RMK A01 T02550169  RH  059%=      5-min Rain = 0
KCR1 151506Z 15002KT 26/17 A30 RMK A01 T02550169  RH  059%=      5-min Rain = 0
KCR1 151507Z 15002KT 26/17 A30 RMK A01 T02550168  RH  059%=      5-min Rain = 0
KCR1 151508Z 14005KT 26/17 A30 RMK A01 T02550168  RH  059%=      5-min Rain = 0
KCR1 151509Z 15005KT 26/17 A30 RMK A01 T02550168  RH  059%=      5-min Rain = 0
KCR1 151510Z 14005KT 26/17 A30 RMK A01 T02550169  RH  059%=      5-min Rain = 0
KCR1 151511Z 13005KT 26/17 A30 RMK A01 T02550166  RH  058%=      5-min Rain = 0
KCR1 151512Z 13005KT 26/17 A30 RMK A01 T02550167  RH  058%=      5-min Rain = 0
KCR1 151513Z 13005KT 25/17 A30 RMK A01 T02540168  RH  059%=      5-min Rain = 0
KCR1 151514Z 13004KT 25/17 A30 RMK A01 T02540168  RH  059%=      5-min Rain = 0
KCR1 151515Z 12005KT 25/17 A30 RMK A01 T02540169  RH  059%=      5-min Rain = 0
KCR1 151516Z 12006KT 25/17 A30 RMK A01 T02540168  RH  059%=      5-min Rain = 0
KCR1 151517Z 12005KT 25/17 A30 RMK A01 T02540168  RH  059%=      5-min Rain = 0
KCR1 151518Z 12005KT 25/17 A30 RMK A01 T02540169  RH  059%=      5-min Rain = 0
KCR1 151519Z 13004KT 25/17 A30 RMK A01 T02530169  RH  060%=      5-min Rain = 0
KCR1 151520Z 12004KT 25/17 A30 RMK A01 T02530169  RH  060%=      5-min Rain = 0
KCR1 151521Z 12005KT 25/17 A30 RMK A01 T02530171  RH  060%=      5-min Rain = 0
KCR1 151522Z 12004KT 25/17 A30 RMK A01 T02530169  RH  060%=      5-min Rain = 0
KCR1 151523Z 11003KT 25/17 A30 RMK A01 T02530170  RH  060%=      5-min Rain = 0
KCR1 151524Z 11005KT 25/17 A30 RMK A01 T02530171  RH  060%=      5-min Rain = 0
KCR1 151525Z 11004KT 25/17 A30 RMK A01 T02540171  RH  060%=      5-min Rain = 0
KCR1 151526Z 10004KT 25/17 A30 RMK A01 T02540171  RH  060%=      5-min Rain = 0
KCR1 151527Z 11006KT 26/17 A30 RMK A01 T02550171  RH  060%=      5-min Rain = 0
KCR1 151528Z 11006KT 26/17 A30 RMK A01 T02560171  RH  059%=      5-min Rain = 0
KCR1 151529Z 12006KT 26/17 A2999 RMK A01 T02560171  RH  059%=      5-min Rain = 0
KCR1 151530Z 12006KT 26/17 A2999 RMK A01 T02580172  RH  059%=      5-min Rain = 0
KCR1 151531Z 12007KT 26/18 A2999 RMK A01 T02600175  RH  059%=      5-min Rain = 0
KCR1 151532Z 12006KT 26/17 A2999 RMK A01 T02630174  RH  058%=      5-min Rain = 0
KCR1 151533Z 12007KT 26/17 A2999 RMK A01 T02640173  RH  057%=      5-min Rain = 0
KCR1 151534Z 12006KT 26/17 A2999 RMK A01 T02640174  RH  057%=      5-min Rain = 0
KCR1 151535Z 14006KT 26/17 A2999 RMK A01 T02640173  RH  057%=      5-min Rain = 0
KCR1 151536Z 15006KT 27/17 A2999 RMK A01 T02650172  RH  057%=      5-min Rain = 0
KCR1 151537Z 13006KT 27/17 A2999 RMK A01 T02660174  RH  057%=      5-min Rain = 0
KCR1 151538Z 13005KT 27/17 A2999 RMK A01 T02680174  RH  056%=      5-min Rain = 0
KCR1 151539Z 13006KT 27/18 A2999 RMK A01 T02680175  RH  057%=      5-min Rain = 0
KCR1 151540Z 12007KT 27/18 A2999 RMK A01 T02680175  RH  057%=      5-min Rain = 0
KCR1 151541Z 13007KT 27/17 A2999 RMK A01 T02680174  RH  057%=      5-min Rain = 0
KCR1 151542Z 12004KT 27/17 A2999 RMK A01 T02660173  RH  057%=      5-min Rain = 0
KCR1 151543Z 14006KT 27/18 A2999 RMK A01 T02650175  RH  058%=      5-min Rain = 0
KCR1 151544Z 13007KT 27/18 A2999 RMK A01 T02670175  RH  057%=      5-min Rain = 0
KCR1 151545Z 13004KT 27/17 A2999 RMK A01 T02670173  RH  056%=      5-min Rain = 0
KCR1 151546Z 12006KT 27/18 A2999 RMK A01 T02660175  RH  057%=      5-min Rain = 0
KCR1 151547Z 11006KT 27/17 A2999 RMK A01 T02670173  RH  056%=      5-min Rain = 0
KCR1 151548Z 13006KT 27/18 A2999 RMK A01 T02690176  RH  057%=      5-min Rain = 0
KCR1 151549Z 13005KT 27/17 A2999 RMK A01 T02700174  RH  056%=      5-min Rain = 0
KCR1 151550Z 12005KT 27/17 A2999 RMK A01 T02690174  RH  056%=      5-min Rain = 0
KCR1 151551Z 12006KT 27/17 A2999 RMK A01 T02680174  RH  056%=      5-min Rain = 0
KCR1 151552Z 12005KT 27/17 A2999 RMK A01 T02660174  RH  057%=      5-min Rain = 0
KCR1 151553Z 11006KT 27/17 A2999 RMK A01 T02650174  RH  057%=      5-min Rain = 0
KCR1 151554Z 10005KT 27/17 A2999 RMK A01 T02660174  RH  057%=      5-min Rain = 0
KCR1 151555Z 09004KT 27/17 A2999 RMK A01 T02660174  RH  057%=      5-min Rain = 0
KCR1 151556Z 14004KT 27/18 A2999 RMK A01 T02670175  RH  057%=      5-min Rain = 0
KCR1 151557Z 14006KT 27/18 A2999 RMK A01 T02690178  RH  057%=      5-min Rain = 0
KCR1 151558Z 15006KT 27/18 A2999 RMK A01 T02720175  RH  055%=      5-min Rain = 0
KCR1 151559Z 18004KT 27/17 A2999 RMK A01 T02700174  RH  056%=      5-min Rain = 0
KCR1 151600Z 13005KT 27/18 A2999 RMK A01 T02680175  RH  056%=      5-min Rain = 0
KCR1 151601Z 12004KT 27/17 A2999 RMK A01 T02680174  RH  056%=      5-min Rain = 0
KCR1 151602Z 11006KT 27/18 A2999 RMK A01 T02670175  RH  057%=      5-min Rain = 0
KCR1 151603Z 13008KT 27/18 A2999 RMK A01 T02680177  RH  057%=      5-min Rain = 0
KCR1 151604Z 12006KT 27/18 A2999 RMK A01 T02730176  RH  056%=      5-min Rain = 0
KCR1 151605Z 10005KT 27/18 A2999 RMK A01 T02720175  RH  055%=      5-min Rain = 0
KCR1 151606Z 10005KT 27/18 A2999 RMK A01 T02710175  RH  056%=      5-min Rain = 0
KCR1 151607Z 12005KT 27/18 A2999 RMK A01 T02710176  RH  056%=      5-min Rain = 0
KCR1 151608Z 17005KT 27/18 A2999 RMK A01 T02730180  RH  057%=      5-min Rain = 0
KCR1 151609Z 14006KT 28/18 A2999 RMK A01 T02760178  RH  055%=      5-min Rain = 0
KCR1 151610Z 13004KT 28/18 A2999 RMK A01 T02760177  RH  055%=      5-min Rain = 0
KCR1 151611Z 12005KT 28/18 A2999 RMK A01 T02780179  RH  055%=      5-min Rain = 0
KCR1 151612Z 16007KT 28/18 A2999 RMK A01 T02780177  RH  054%=      5-min Rain = 0
KCR1 151613Z 14007KT 28/18 A2999 RMK A01 T02780176  RH  054%=      5-min Rain = 0
KCR1 151614Z 11007KT 28/18 A2999 RMK A01 T02780176  RH  054%=      5-min Rain = 0
KCR1 151615Z 12009KT 28/18 A2999 RMK A01 T02780176  RH  054%=      5-min Rain = 0
KCR1 151616Z 12006KT 28/18 A2999 RMK A01 T02780175  RH  054%=      5-min Rain = 0
KCR1 151617Z 14009KT 28/18 A2998 RMK A01 T02770176  RH  054%=      5-min Rain = 0
KCR1 151618Z 12009KT 28/17 A2998 RMK A01 T02770174  RH  053%=      5-min Rain = 0
KCR1 151619Z 13007KT 28/18 A2998 RMK A01 T02770176  RH  054%=      5-min Rain = 0
KCR1 151620Z 15006KT 28/18 A2998 RMK A01 T02780178  RH  054%=      5-min Rain = 0
KCR1 151621Z 13008KT 28/18 A2998 RMK A01 T02820180  RH  054%=      5-min Rain = 0
KCR1 151622Z 12008KT 28/18 A2998 RMK A01 T02840177  RH  052%=      5-min Rain = 0
KCR1 151623Z 12010KT 29/18 A2998 RMK A01 T02850178  RH  052%=      5-min Rain = 0
KCR1 151624Z 11009KT 29/17 A2998 RMK A01 T02850174  RH  051%=      5-min Rain = 0
KCR1 151625Z 11008KT 28/18 A2998 RMK A01 T02820175  RH  052%=      5-min Rain = 0
KCR1 151626Z 11009KT 28/18 A2998 RMK A01 T02800175  RH  053%=      5-min Rain = 0
KCR1 151627Z 08007KT 28/18 A2998 RMK A01 T02790176  RH  053%=      5-min Rain = 0
KCR1 151628Z 13006KT 28/18 A2998 RMK A01 T02800177  RH  054%=      5-min Rain = 0
KCR1 151629Z 15009KT 28/18 A2998 RMK A01 T02800177  RH  053%=      5-min Rain = 0
KCR1 151630Z 15007KT 28/18 A2998 RMK A01 T02790177  RH  054%=      5-min Rain = 0
KCR1 151631Z 16007KT 28/18 A2998 RMK A01 T02800177  RH  053%=      5-min Rain = 0
KCR1 151632Z 16007KT 28/18 A2998 RMK A01 T02810176  RH  053%=      5-min Rain = 0
KCR1 151633Z 15005KT 28/18 A2998 RMK A01 T02810177  RH  053%=      5-min Rain = 0
KCR1 151634Z 14007KT 28/18 A2998 RMK A01 T02810178  RH  054%=      5-min Rain = 0
KCR1 151635Z 14008KT 28/18 A2998 RMK A01 T02820178  RH  053%=      5-min Rain = 0
KCR1 151636Z 12007KT 28/18 A2998 RMK A01 T02840179  RH  053%=      5-min Rain = 0
KCR1 151637Z 11006KT 28/18 A2998 RMK A01 T02840179  RH  053%=      5-min Rain = 0
KCR1 151638Z 11009KT 29/18 A2998 RMK A01 T02850177  RH  052%=      5-min Rain = 0
KCR1 151639Z 10006KT 29/18 A2998 RMK A01 T02850176  RH  052%=      5-min Rain = 0
KCR1 151640Z 11005KT 29/18 A2998 RMK A01 T02850178  RH  052%=      5-min Rain = 0
KCR1 151641Z 13007KT 29/18 A2998 RMK A01 T02870180  RH  052%=      5-min Rain = 0
KCR1 151642Z 13007KT 29/18 A2998 RMK A01 T02890179  RH  051%=      5-min Rain = 0
KCR1 151643Z 11007KT 29/18 A2998 RMK A01 T02870177  RH  051%=      5-min Rain = 0
KCR1 151644Z 09008KT 29/18 A2998 RMK A01 T02860176  RH  052%=      5-min Rain = 0
KCR1 151645Z 09009KT 29/17 A2998 RMK A01 T02870174  RH  050%=      5-min Rain = 0
KCR1 151646Z 09007KT 29/17 A2998 RMK A01 T02880172  RH  049%=      5-min Rain = 0
KCR1 151647Z 11007KT 29/17 A2998 RMK A01 T02870170  RH  049%=      5-min Rain = 0
KCR1 151648Z 09006KT 29/17 A2998 RMK A01 T02860171  RH  050%=      5-min Rain = 0
KCR1 151649Z 07004KT 29/17 A2998 RMK A01 T02850173  RH  051%=      5-min Rain = 0
KCR1 151650Z 11004KT 28/17 A2998 RMK A01 T02830174  RH  051%=      5-min Rain = 0
KCR1 151651Z 15006KT 28/18 A2998 RMK A01 T02820176  RH  052%=      5-min Rain = 0
KCR1 151652Z 14006KT 28/18 A2998 RMK A01 T02820177  RH  053%=      5-min Rain = 0
KCR1 151653Z 15006KT 28/18 A2998 RMK A01 T02840177  RH  052%=      5-min Rain = 0
KCR1 151654Z 16004KT 28/18 A2998 RMK A01 T02840178  RH  052%=      5-min Rain = 0
KCR1 151655Z 13004KT 29/18 A2998 RMK A01 T02860177  RH  052%=      5-min Rain = 0
KCR1 151656Z 09006KT 29/18 A2998 RMK A01 T02870179  RH  052%=      5-min Rain = 0
KCR1 151657Z 09006KT 29/18 A2998 RMK A01 T02890176  RH  051%=      5-min Rain = 0
KCR1 151658Z 09006KT 29/18 A2998 RMK A01 T02890176  RH  050%=      5-min Rain = 0
KCR1 151659Z 11005KT 29/18 A2998 RMK A01 T02900177  RH  050%=      5-min Rain = 0
KCR1 151700Z 13006KT 29/18 A2998 RMK A01 T02920176  RH  050%=      5-min Rain = 0
KCR1 151701Z 15007KT 29/18 A2998 RMK A01 T02920176  RH  050%=      5-min Rain = 0
KCR1 151702Z 13010KT 29/18 A2998 RMK A01 T02910177  RH  050%=      5-min Rain = 0
KCR1 151703Z 13008KT 29/18 A2998 RMK A01 T02930176  RH  049%=      5-min Rain = 0
KCR1 151704Z 12008KT 29/18 A2998 RMK A01 T02910176  RH  050%=      5-min Rain = 0
KCR1 151705Z 12007KT 29/18 A2998 RMK A01 T02910175  RH  050%=      5-min Rain = 0
KCR1 151706Z 12008G13KT 29/18 A2998 RMK A01 T02890175  RH  050%=      5-min Rain = 0
KCR1 151707Z 13009KT 29/18 A2998 RMK A01 T02900176  RH  050%=      5-min Rain = 0
KCR1 151708Z 12010KT 29/18 A2998 RMK A01 T02910175  RH  050%=      5-min Rain = 0
KCR1 151709Z 12006KT 29/18 A2998 RMK A01 T02890175  RH  050%=      5-min Rain = 0
KCR1 151710Z 13005KT 29/18 A2998 RMK A01 T02890176  RH  051%=      5-min Rain = 0
KCR1 151711Z 09002KT 29/17 A2998 RMK A01 T02890174  RH  050%=      5-min Rain = 0
KCR1 151712Z 13004KT 29/17 A2997 RMK A01 T02880174  RH  050%=      5-min Rain = 0
KCR1 151713Z 17005KT 29/17 A2997 RMK A01 T02880174  RH  050%=      5-min Rain = 0
KCR1 151714Z 16006KT 29/18 A2997 RMK A01 T02880177  RH  051%=      5-min Rain = 0
KCR1 151715Z 17005KT 29/18 A2997 RMK A01 T02900178  RH  051%=      5-min Rain = 0
KCR1 151716Z 13009KT 29/18 A2997 RMK A01 T02930179  RH  050%=      5-min Rain = 0
KCR1 151717Z 12009KT 30/18 A2997 RMK A01 T02960177  RH  049%=      5-min Rain = 0
KCR1 151718Z 14010KT 29/18 A2997 RMK A01 T02940178  RH  050%=      5-min Rain = 0
KCR1 151719Z 13006KT 29/18 A2998 RMK A01 T02930177  RH  050%=      5-min Rain = 0
KCR1 151720Z 14004KT 29/18 A2998 RMK A01 T02910177  RH  050%=      5-min Rain = 0
KCR1 151721Z 18002KT 29/18 A2997 RMK A01 T02900176  RH  050%=      5-min Rain = 0
KCR1 151722Z 19002KT 29/17 A2997 RMK A01 T02890174  RH  050%=      5-min Rain = 0
KCR1 151723Z 13006G12KT 29/18 A2997 RMK A01 T02880177  RH  051%=      5-min Rain = 0
KCR1 151724Z 11010KT 29/18 A2997 RMK A01 T02910177  RH  050%=      5-min Rain = 0
KCR1 151725Z 10004KT 29/18 A2997 RMK A01 T02890175  RH  050%=      5-min Rain = 0
KCR1 151726Z 09003KT 29/18 A2997 RMK A01 T02860175  RH  051%=      5-min Rain = 0
KCR1 151727Z 11005KT 29/18 A2997 RMK A01 T02860177  RH  052%=      5-min Rain = 0
KCR1 151728Z 10005KT 29/18 A2997 RMK A01 T02880178  RH  052%=      5-min Rain = 0
KCR1 151729Z 11007KT 29/18 A2997 RMK A01 T02930182  RH  051%=      5-min Rain = 0
KCR1 151730Z 11006KT 30/18 A2997 RMK A01 T02950180  RH  050%=      5-min Rain = 0
KCR1 151731Z 10008KT 30/18 A2997 RMK A01 T02960180  RH  049%=      5-min Rain = 0
KCR1 151732Z 11008KT 30/18 A2997 RMK A01 T02980179  RH  049%=      5-min Rain = 0
KCR1 151733Z 12006KT 30/18 A2997 RMK A01 T02970178  RH  049%=      5-min Rain = 0
KCR1 151734Z 12006KT 29/18 A2997 RMK A01 T02940178  RH  050%=      5-min Rain = 0
KCR1 151735Z 10006KT 29/18 A2997 RMK A01 T02940179  RH  050%=      5-min Rain = 0
KCR1 151736Z 10010KT 30/18 A2997 RMK A01 T02950178  RH  049%=      5-min Rain = 0
KCR1 151737Z 11008KT 30/18 A2998 RMK A01 T02950179  RH  050%=      5-min Rain = 0
KCR1 151738Z 11005KT 29/18 A2998 RMK A01 T02940179  RH  050%=      5-min Rain = 0
KCR1 151739Z 12006KT 29/18 A2998 RMK A01 T02930179  RH  050%=      5-min Rain = 0
KCR1 151740Z 13005KT 29/18 A2998 RMK A01 T02930179  RH  050%=      5-min Rain = 0
KCR1 151741Z 14006KT 29/18 A2998 RMK A01 T02930180  RH  050%=      5-min Rain = 0
KCR1 151742Z 14006KT 29/18 A2998 RMK A01 T02940180  RH  050%=      5-min Rain = 0
KCR1 151743Z 14008KT 30/18 A2998 RMK A01 T02950179  RH  050%=      5-min Rain = 0
KCR1 151744Z 11005KT 30/18 A2998 RMK A01 T02950178  RH  049%=      5-min Rain = 0
KCR1 151745Z 08007KT 29/18 A2998 RMK A01 T02920178  RH  050%=      5-min Rain = 0
KCR1 151746Z 07010KT 29/18 A2998 RMK A01 T02920177  RH  050%=      5-min Rain = 0
KCR1 151747Z 06007KT 29/18 A2998 RMK A01 T02890177  RH  051%=      5-min Rain = 0
KCR1 151748Z 08007KT 29/18 A2998 RMK A01 T02910179  RH  051%=      5-min Rain = 0
KCR1 151749Z 07008KT 29/18 A2998 RMK A01 T02940179  RH  050%=      5-min Rain = 0
KCR1 151750Z 06010KT 30/18 A2998 RMK A01 T02970178  RH  049%=      5-min Rain = 0
KCR1 151751Z 06007G12KT 30/18 A2998 RMK A01 T02980178  RH  049%=      5-min Rain = 0
KCR1 151752Z 06005KT 30/18 A2998 RMK A01 T02980178  RH  048%=      5-min Rain = 0
KCR1 151753Z 05005KT 30/18 A2998 RMK A01 T03000177  RH  048%=      5-min Rain = 0
KCR1 151754Z 07003KT 30/18 A2998 RMK A01 T02970177  RH  049%=      5-min Rain = 0
KCR1 151755Z 09003KT 30/18 A2998 RMK A01 T02970178  RH  049%=      5-min Rain = 0
KCR1 151756Z 08007KT 30/18 A2998 RMK A01 T02990178  RH  048%=      5-min Rain = 0
KCR1 151757Z 08006KT 30/18 A2998 RMK A01 T03000178  RH  048%=      5-min Rain = 0
KCR1 151758Z 08007KT 30/18 A2998 RMK A01 T03000178  RH  048%=      5-min Rain = 0
KCR1 151759Z 07008KT 30/18 A2998 RMK A01 T02990179  RH  049%=      5-min Rain = 0
KCR1 151800Z 08008KT 30/18 A2998 RMK A01 T02980178  RH  048%=      5-min Rain = 0
KCR1 151801Z 07005KT 30/18 A2998 RMK A01 T02960177  RH  049%=      5-min Rain = 0
KCR1 151802Z 06007KT 30/18 A2997 RMK A01 T02960178  RH  049%=      5-min Rain = 0
KCR1 151803Z 05007KT 30/18 A2997 RMK A01 T02960177  RH  049%=      5-min Rain = 0
KCR1 151804Z 05007KT 30/18 A2997 RMK A01 T02950177  RH  049%=      5-min Rain = 0
KCR1 151805Z 06006KT 29/18 A2997 RMK A01 T02940178  RH  050%=      5-min Rain = 0
KCR1 151806Z 09006KT 30/18 A2997 RMK A01 T02950179  RH  050%=      5-min Rain = 0
KCR1 151807Z 11005KT 30/18 A2997 RMK A01 T02980179  RH  049%=      5-min Rain = 0
KCR1 151808Z 11007KT 30/18 A2997 RMK A01 T02990180  RH  049%=      5-min Rain = 0
KCR1 151809Z 10008KT 30/18 A2997 RMK A01 T03010179  RH  048%=      5-min Rain = 0
KCR1 151810Z 12006KT 30/18 A2997 RMK A01 T03030180  RH  048%=      5-min Rain = 0
KCR1 151811Z 10007KT 30/18 A2997 RMK A01 T03030180  RH  048%=      5-min Rain = 0
KCR1 151812Z 10004KT 30/18 A2997 RMK A01 T03020179  RH  048%=      5-min Rain = 0
KCR1 151813Z 09007KT 30/18 A2997 RMK A01 T03020181  RH  048%=      5-min Rain = 0
KCR1 151814Z 06008KT 31/18 A2997 RMK A01 T03050180  RH  047%=      5-min Rain = 0
KCR1 151815Z 08009KT 31/18 A2997 RMK A01 T03070180  RH  047%=      5-min Rain = 0
KCR1 151816Z 08007KT 31/18 A2997 RMK A01 T03060178  RH  047%=      5-min Rain = 0
KCR1 151817Z 06005KT 30/18 A2997 RMK A01 T03040183  RH  048%=      5-min Rain = 0
KCR1 151818Z 07006KT 31/19 A2997 RMK A01 T03130186  RH  047%=      5-min Rain = 0
KCR1 151819Z 11005KT 32/18 A2997 RMK A01 T03150180  RH  044%=      5-min Rain = 0
KCR1 151820Z 12007KT 31/18 A2997 RMK A01 T03100180  RH  046%=      5-min Rain = 0
KCR1 151821Z 12009KT 31/18 A2997 RMK A01 T03050180  RH  047%=      5-min Rain = 0
KCR1 151822Z 10009KT 30/18 A2997 RMK A01 T03040180  RH  048%=      5-min Rain = 0
KCR1 151823Z 12009KT 30/18 A2997 RMK A01 T03040180  RH  048%=      5-min Rain = 0
KCR1 151824Z 12006KT 30/18 A2997 RMK A01 T03040180  RH  048%=      5-min Rain = 0
KCR1 151825Z 10005KT 30/18 A2997 RMK A01 T03010178  RH  048%=      5-min Rain = 0
KCR1 151826Z 11005KT 30/18 A2997 RMK A01 T02990179  RH  049%=      5-min Rain = 0
KCR1 151827Z 15005KT 30/18 A2996 RMK A01 T02990182  RH  049%=      5-min Rain = 0
KCR1 151828Z 13010KT 30/18 A2996 RMK A01 T03040183  RH  048%=      5-min Rain = 0
KCR1 151829Z 13012KT 31/18 A2997 RMK A01 T03060181  RH  047%=      5-min Rain = 0
KCR1 151830Z 13006KT 30/18 A2997 RMK A01 T03020179  RH  048%=      5-min Rain = 0
KCR1 151831Z 11012KT 30/18 A2997 RMK A01 T03000180  RH  048%=      5-min Rain = 0
KCR1 151832Z 11010KT 30/18 A2997 RMK A01 T03020178  RH  048%=      5-min Rain = 0
KCR1 151833Z 10010KT 30/18 A2997 RMK A01 T03020179  RH  048%=      5-min Rain = 0
KCR1 151834Z 11008KT 30/18 A2997 RMK A01 T03040179  RH  047%=      5-min Rain = 0
KCR1 151835Z 09006KT 31/18 A2997 RMK A01 T03060180  RH  047%=      5-min Rain = 0
KCR1 151836Z 11007KT 31/18 A2996 RMK A01 T03060179  RH  046%=      5-min Rain = 0
KCR1 151837Z 12004KT 31/18 A2996 RMK A01 T03080178  RH  046%=      5-min Rain = 0
KCR1 151838Z 11004KT 31/18 A2996 RMK A01 T03070180  RH  047%=      5-min Rain = 0
KCR1 151839Z 13001KT 31/18 A2996 RMK A01 T03080177  RH  046%=      5-min Rain = 0
KCR1 151840Z 10001KT 31/18 A2996 RMK A01 T03060178  RH  046%=      5-min Rain = 0
KCR1 151841Z 09005G11KT 30/18 A2996 RMK A01 T03040178  RH  047%=      5-min Rain = 0
KCR1 151842Z 08008KT 30/18 A2996 RMK A01 T03030179  RH  047%=      5-min Rain = 0
KCR1 151843Z 09009KT 30/18 A2996 RMK A01 T03040178  RH  047%=      5-min Rain = 0
KCR1 151844Z 10010KT 30/18 A2996 RMK A01 T03020177  RH  047%=      5-min Rain = 0
KCR1 151845Z 09007KT 30/18 A2996 RMK A01 T02990177  RH  048%=      5-min Rain = 0
KCR1 151846Z 10005KT 30/18 A2996 RMK A01 T02980177  RH  048%=      5-min Rain = 0
KCR1 151847Z 10009KT 30/18 A2996 RMK A01 T02980177  RH  048%=      5-min Rain = 0
KCR1 151848Z 08009KT 30/18 A2996 RMK A01 T03000177  RH  048%=      5-min Rain = 0
KCR1 151849Z 07008KT 30/18 A2996 RMK A01 T03000177  RH  048%=      5-min Rain = 0
KCR1 151850Z 08008KT 30/18 A2996 RMK A01 T03000176  RH  047%=      5-min Rain = 0
KCR1 151851Z 10005KT 30/18 A2996 RMK A01 T03000176  RH  048%=      5-min Rain = 0
KCR1 151852Z 05004KT 30/18 A2996 RMK A01 T02990177  RH  048%=      5-min Rain = 0
KCR1 151853Z 05004KT 30/18 A2996 RMK A01 T02990176  RH  048%=      5-min Rain = 0
KCR1 151854Z 06005KT 30/18 A2996 RMK A01 T02990177  RH  048%=      5-min Rain = 0
KCR1 151855Z 05005KT 30/18 A2996 RMK A01 T03010179  RH  048%=      5-min Rain = 0
KCR1 151856Z 03002KT 30/18 A2996 RMK A01 T03040176  RH  046%=      5-min Rain = 0
KCR1 151857Z 04003KT 31/18 A2996 RMK A01 T03050178  RH  047%=      5-min Rain = 0
KCR1 151858Z 09005G10KT 31/18 A2996 RMK A01 T03060180  RH  047%=      5-min Rain = 0
KCR1 151859Z 11007KT 31/18 A2996 RMK A01 T03080179  RH  046%=      5-min Rain = 0
KCR1 151900Z 10006KT 31/18 A2996 RMK A01 T03070179  RH  047%=      5-min Rain = 0
KCR1 151901Z 10007KT 30/18 A2996 RMK A01 T03040179  RH  047%=      5-min Rain = 0
KCR1 151902Z 07007KT 30/18 A2996 RMK A01 T03040179  RH  047%=      5-min Rain = 0
KCR1 151903Z 09008KT 30/18 A2996 RMK A01 T03030179  RH  047%=      5-min Rain = 0
KCR1 151904Z 10011KT 30/18 A2996 RMK A01 T03030179  RH  048%=      5-min Rain = 0
KCR1 151905Z 10008KT 30/18 A2996 RMK A01 T03020179  RH  048%=      5-min Rain = 0
KCR1 151906Z 12008KT 30/18 A2996 RMK A01 T03000179  RH  048%=      5-min Rain = 0
KCR1 151907Z 13008KT 30/18 A2996 RMK A01 T02990179  RH  049%=      5-min Rain = 0
KCR1 151908Z 12006KT 30/18 A2996 RMK A01 T02990178  RH  048%=      5-min Rain = 0
KCR1 151909Z 12004KT 30/18 A2996 RMK A01 T02990178  RH  048%=      5-min Rain = 0
KCR1 151910Z 10006KT 30/18 A2996 RMK A01 T02990181  RH  049%=      5-min Rain = 0
KCR1 151911Z 09007KT 30/18 A2996 RMK A01 T03040181  RH  048%=      5-min Rain = 0
KCR1 151912Z 08004KT 31/18 A2996 RMK A01 T03070180  RH  047%=      5-min Rain = 0
KCR1 151913Z 11003KT 31/18 A2996 RMK A01 T03080177  RH  046%=      5-min Rain = 0
KCR1 151914Z 15002KT 31/18 A2996 RMK A01 T03090178  RH  046%=      5-min Rain = 0
KCR1 151915Z 14002KT 31/18 A2996 RMK A01 T03090178  RH  045%=      5-min Rain = 0
KCR1 151916Z 19004KT 31/18 A2996 RMK A01 T03090176  RH  045%=      5-min Rain = 0
KCR1 151917Z 17004KT 31/18 A2996 RMK A01 T03090178  RH  045%=      5-min Rain = 0
KCR1 151918Z 16006KT 31/18 A2995 RMK A01 T03120182  RH  046%=      5-min Rain = 0
KCR1 151919Z 14007KT 32/18 A2995 RMK A01 T03160181  RH  045%=      5-min Rain = 0
KCR1 151920Z 13006KT 32/18 A2995 RMK A01 T03180180  RH  044%=      5-min Rain = 0
KCR1 151921Z 14005KT 32/18 A2995 RMK A01 T03200184  RH  044%=      5-min Rain = 0
KCR1 151922Z 14005KT 32/18 A2995 RMK A01 T03210182  RH  044%=      5-min Rain = 0
KCR1 151923Z 15006KT 32/18 A2995 RMK A01 T03190180  RH  044%=      5-min Rain = 0
KCR1 151924Z 14008KT 32/18 A2995 RMK A01 T03190180  RH  044%=      5-min Rain = 0
KCR1 151925Z 13010KT 32/18 A2995 RMK A01 T03190179  RH  043%=      5-min Rain = 0
KCR1 151926Z 11008KT 32/18 A2995 RMK A01 T03200178  RH  043%=      5-min Rain = 0
KCR1 151927Z 12007KT 32/18 A2995 RMK A01 T03190179  RH  043%=      5-min Rain = 0
KCR1 151928Z 10005KT 32/18 A2995 RMK A01 T03190179  RH  043%=      5-min Rain = 0
KCR1 151929Z 12004KT 32/18 A2995 RMK A01 T03200181  RH  044%=      5-min Rain = 0
KCR1 151930Z 16004KT 32/18 A2995 RMK A01 T03240180  RH  043%=      5-min Rain = 0
KCR1 151931Z 16007KT 32/18 A2995 RMK A01 T03240178  RH  042%=      5-min Rain = 0
KCR1 151932Z 15008KT 32/18 A2995 RMK A01 T03240183  RH  043%=      5-min Rain = 0
KCR1 151933Z 14007KT 33/18 A2995 RMK A01 T03250178  RH  042%=      5-min Rain = 0
KCR1 151934Z 11010KT 32/18 A2995 RMK A01 T03200178  RH  043%=      5-min Rain = 0
KCR1 151935Z 09010KT 32/18 A2995 RMK A01 T03200179  RH  043%=      5-min Rain = 0
KCR1 151936Z 11008KT 32/18 A2995 RMK A01 T03200180  RH  043%=      5-min Rain = 0
KCR1 151937Z 10010KT 32/18 A2995 RMK A01 T03240183  RH  043%=      5-min Rain = 0
KCR1 151938Z 09011KT 33/18 A2995 RMK A01 T03290180  RH  041%=      5-min Rain = 0
KCR1 151939Z 09008KT 33/18 A2995 RMK A01 T03260179  RH  042%=      5-min Rain = 0
KCR1 151940Z 07009KT 33/18 A2995 RMK A01 T03260180  RH  042%=      5-min Rain = 0
KCR1 151941Z 06008KT 33/18 A2995 RMK A01 T03260178  RH  041%=      5-min Rain = 0
KCR1 151942Z 08006KT 32/18 A2995 RMK A01 T03240179  RH  042%=      5-min Rain = 0
KCR1 151943Z 11008KT 32/18 A2995 RMK A01 T03240179  RH  042%=      5-min Rain = 0
KCR1 151944Z 11006KT 33/18 A2995 RMK A01 T03250178  RH  042%=      5-min Rain = 0
KCR1 151945Z 15005KT 32/18 A2995 RMK A01 T03210177  RH  042%=      5-min Rain = 0
KCR1 151946Z 10006KT 32/18 A2995 RMK A01 T03200180  RH  043%=      5-min Rain = 0
KCR1 151947Z 13006KT 32/18 A2995 RMK A01 T03240181  RH  043%=      5-min Rain = 0
KCR1 151948Z 11005KT 33/18 A2995 RMK A01 T03270181  RH  042%=      5-min Rain = 0
KCR1 151949Z 11005KT 33/18 A2994 RMK A01 T03280180  RH  042%=      5-min Rain = 0
KCR1 151950Z 10010KT 33/18 A2994 RMK A01 T03290181  RH  042%=      5-min Rain = 0
KCR1 151951Z 09009KT 33/18 A2995 RMK A01 T03280178  RH  041%=      5-min Rain = 0
KCR1 151952Z 09009KT 33/18 A2994 RMK A01 T03250180  RH  042%=      5-min Rain = 0
KCR1 151953Z 11008KT 33/18 A2994 RMK A01 T03270180  RH  042%=      5-min Rain = 0
KCR1 151954Z 09007KT 33/18 A2994 RMK A01 T03270179  RH  041%=      5-min Rain = 0
KCR1 151955Z 09006KT 32/18 A2994 RMK A01 T03220176  RH  042%=      5-min Rain = 0
KCR1 151956Z 12011KT 32/18 A2994 RMK A01 T03170178  RH  043%=      5-min Rain = 0
KCR1 151957Z 13011KT 32/18 A2994 RMK A01 T03160178  RH  044%=      5-min Rain = 0
KCR1 151958Z 13010KT 31/18 A2994 RMK A01 T03140177  RH  044%=      5-min Rain = 0
KCR1 151959Z 12010KT 31/18 A2994 RMK A01 T03130177  RH  044%=      5-min Rain = 0
KCR1 152000Z 10008KT 31/18 A2994 RMK A01 T03120177  RH  045%=      5-min Rain = 0
KCR1 152001Z 10006KT 31/18 A2994 RMK A01 T03100177  RH  045%=      5-min Rain = 0
KCR1 152002Z 11010KT 31/18 A2994 RMK A01 T03090177  RH  045%=      5-min Rain = 0
KCR1 152003Z 11009KT 31/18 A2994 RMK A01 T03100176  RH  045%=      5-min Rain = 0
KCR1 152004Z 12007KT 31/18 A2994 RMK A01 T03110175  RH  044%=      5-min Rain = 0
KCR1 152005Z 12005KT 31/18 A2994 RMK A01 T03100175  RH  044%=      5-min Rain = 0
KCR1 152006Z 12004KT 31/17 A2994 RMK A01 T03100174  RH  044%=      5-min Rain = 0
KCR1 152007Z 12005KT 31/18 A2994 RMK A01 T03090175  RH  045%=      5-min Rain = 0
KCR1 152008Z 11006KT 31/18 A2994 RMK A01 T03100175  RH  044%=      5-min Rain = 0
KCR1 152009Z 09005KT 31/18 A2994 RMK A01 T03110175  RH  044%=      5-min Rain = 0
KCR1 152010Z 10005KT 31/18 A2994 RMK A01 T03130177  RH  044%=      5-min Rain = 0
KCR1 152011Z 13002KT 32/18 A2994 RMK A01 T03150178  RH  044%=      5-min Rain = 0
KCR1 152012Z 08000KT 32/18 A2994 RMK A01 T03150177  RH  044%=      5-min Rain = 0
KCR1 152013Z 08001KT 31/18 A2993 RMK A01 T03140176  RH  044%=      5-min Rain = 0
KCR1 152014Z 09001KT 31/18 A2993 RMK A01 T03140178  RH  044%=      5-min Rain = 0
KCR1 152015Z 11004KT 31/18 A2993 RMK A01 T03130177  RH  044%=      5-min Rain = 0
KCR1 152016Z 12004KT 31/18 A2993 RMK A01 T03140179  RH  045%=      5-min Rain = 0
KCR1 152017Z 12006KT 32/18 A2993 RMK A01 T03160179  RH  044%=      5-min Rain = 0
KCR1 152018Z 08009KT 32/18 A2993 RMK A01 T03180180  RH  044%=      5-min Rain = 0
KCR1 152019Z 09007KT 32/18 A2993 RMK A01 T03230182  RH  043%=      5-min Rain = 0
KCR1 152020Z 07008KT 33/18 A2993 RMK A01 T03250181  RH  042%=      5-min Rain = 0
KCR1 152021Z 10007KT 32/18 A2993 RMK A01 T03220181  RH  043%=      5-min Rain = 0
KCR1 152022Z 09007KT 32/18 A2993 RMK A01 T03180180  RH  044%=      5-min Rain = 0
KCR1 152023Z 13007KT 32/18 A2993 RMK A01 T03150178  RH  044%=      5-min Rain = 0
KCR1 152024Z 15008KT 31/18 A2993 RMK A01 T03130177  RH  044%=      5-min Rain = 0
KCR1 152025Z 15009KT 31/18 A2993 RMK A01 T03140177  RH  044%=      5-min Rain = 0
KCR1 152026Z 14007KT 32/18 A2993 RMK A01 T03150177  RH  044%=      5-min Rain = 0
KCR1 152027Z 14009KT 32/18 A2993 RMK A01 T03180178  RH  043%=      5-min Rain = 0
KCR1 152028Z 14007KT 32/18 A2993 RMK A01 T03230176  RH  042%=      5-min Rain = 0
KCR1 152029Z 12007KT 32/18 A2992 RMK A01 T03240178  RH  042%=      5-min Rain = 0
KCR1 152030Z 10008KT 33/18 A2992 RMK A01 T03250182  RH  043%=      5-min Rain = 0
KCR1 152031Z 13007KT 33/18 A2992 RMK A01 T03250182  RH  043%=      5-min Rain = 0
KCR1 152032Z 11007KT 32/18 A2992 RMK A01 T03220183  RH  044%=      5-min Rain = 0
KCR1 152033Z 09007KT 32/18 A2992 RMK A01 T03240183  RH  043%=      5-min Rain = 0
KCR1 152034Z 09011KT 33/18 A2992 RMK A01 T03270183  RH  042%=      5-min Rain = 0
KCR1 152035Z 12014G20KT 33/18 A2992 RMK A01 T03280181  RH  042%=      5-min Rain = 0
KCR1 152036Z 15006KT 33/18 A2992 RMK A01 T03290181  RH  041%=      5-min Rain = 0
KCR1 152037Z 14007KT 33/18 A2992 RMK A01 T03310180  RH  041%=      5-min Rain = 0
KCR1 152038Z 14011KT 33/18 A2992 RMK A01 T03330180  RH  040%=      5-min Rain = 0
KCR1 152039Z 15009KT 33/18 A2992 RMK A01 T03320179  RH  040%=      5-min Rain = 0
KCR1 152040Z 13007KT 33/18 A2992 RMK A01 T03300180  RH  041%=      5-min Rain = 0
KCR1 152041Z 10007G12KT 33/18 A2992 RMK A01 T03330184  RH  041%=      5-min Rain = 0
KCR1 152042Z 12008KT 34/18 A2992 RMK A01 T03350181  RH  040%=      5-min Rain = 0
KCR1 152043Z 10009KT 33/18 A2992 RMK A01 T03340180  RH  040%=      5-min Rain = 0
KCR1 152044Z 09008KT 33/18 A2992 RMK A01 T03290180  RH  041%=      5-min Rain = 0
KCR1 152045Z 09007KT 33/18 A2992 RMK A01 T03260180  RH  042%=      5-min Rain = 0
KCR1 152046Z 07007KT 33/18 A2991 RMK A01 T03260183  RH  043%=      5-min Rain = 0
KCR1 152047Z 09006KT 33/18 A2992 RMK A01 T03310181  RH  041%=      5-min Rain = 0
KCR1 152048Z 14004KT 33/18 A2992 RMK A01 T03290181  RH  041%=      5-min Rain = 0
KCR1 152049Z 16006KT 33/18 A2991 RMK A01 T03300179  RH  041%=      5-min Rain = 0
KCR1 152050Z 16004KT 33/17 A2991 RMK A01 T03300174  RH  039%=      5-min Rain = 0
KCR1 152051Z 17007KT 33/18 A2991 RMK A01 T03280177  RH  041%=      5-min Rain = 0
KCR1 152052Z 17007KT 33/18 A2991 RMK A01 T03280177  RH  041%=      5-min Rain = 0
KCR1 152053Z 15006KT 33/18 A2991 RMK A01 T03250175  RH  041%=      5-min Rain = 0
KCR1 152054Z 16006KT 32/18 A2991 RMK A01 T03230176  RH  042%=      5-min Rain = 0
KCR1 152055Z 14010KT 33/18 A2991 RMK A01 T03270181  RH  042%=      5-min Rain = 0
KCR1 152056Z 14010KT 33/18 A2991 RMK A01 T03320180  RH  041%=      5-min Rain = 0
KCR1 152057Z 15008KT 33/18 A2991 RMK A01 T03330178  RH  040%=      5-min Rain = 0
KCR1 152058Z 16010KT 33/18 A2991 RMK A01 T03310177  RH  040%=      5-min Rain = 0
KCR1 152059Z 16007KT 33/18 A2991 RMK A01 T03310178  RH  040%=      5-min Rain = 0
KCR1 152100Z 16008KT 33/18 A2991 RMK A01 T03320178  RH  040%=      5-min Rain = 0
KCR1 152101Z 16009KT 33/18 A2991 RMK A01 T03330177  RH  040%=      5-min Rain = 0
KCR1 152102Z 17006KT 33/18 A2991 RMK A01 T03290175  RH  040%=      5-min Rain = 0
KCR1 152103Z 18005KT 33/17 A2991 RMK A01 T03260174  RH  040%=      5-min Rain = 0
KCR1 152104Z 13006KT 33/18 A2991 RMK A01 T03250176  RH  041%=      5-min Rain = 0
KCR1 152105Z 13008KT 33/18 A2991 RMK A01 T03280177  RH  041%=      5-min Rain = 0
KCR1 152106Z 15006KT 33/18 A2991 RMK A01 T03280175  RH  040%=      5-min Rain = 0
KCR1 152107Z 14008KT 33/17 A2991 RMK A01 T03250174  RH  041%=      5-min Rain = 0
KCR1 152108Z 19004KT 32/17 A2991 RMK A01 T03210170  RH  040%=      5-min Rain = 0
KCR1 152109Z 26003KT 32/17 A2991 RMK A01 T03190170  RH  041%=      5-min Rain = 0
KCR1 152110Z 30002KT 32/17 A299 RMK A01 T03190170  RH  041%=      5-min Rain = 0
KCR1 152111Z 30002KT 32/17 A299 RMK A01 T03180170  RH  041%=      5-min Rain = 0
KCR1 152112Z 29001KT 32/17 A299 RMK A01 T03170171  RH  042%=      5-min Rain = 0
KCR1 152113Z 19002KT 32/17 A299 RMK A01 T03170171  RH  042%=      5-min Rain = 0
KCR1 152114Z 16006KT 32/17 A299 RMK A01 T03180172  RH  042%=      5-min Rain = 0
KCR1 152115Z 18003KT 32/17 A299 RMK A01 T03190171  RH  041%=      5-min Rain = 0
KCR1 152116Z 11004KT 32/17 A299 RMK A01 T03190171  RH  041%=      5-min Rain = 0
KCR1 152117Z 09005KT 32/17 A299 RMK A01 T03220173  RH  041%=      5-min Rain = 0
KCR1 152118Z 13006KT 33/17 A299 RMK A01 T03260173  RH  040%=      5-min Rain = 0
KCR1 152119Z 14007KT 33/17 A299 RMK A01 T03270174  RH  040%=      5-min Rain = 0
KCR1 152120Z 14010KT 33/17 A299 RMK A01 T03280174  RH  040%=      5-min Rain = 0
KCR1 152121Z 17007KT 33/17 A299 RMK A01 T03260172  RH  040%=      5-min Rain = 0
KCR1 152122Z 16004KT 32/17 A299 RMK A01 T03210173  RH  041%=      5-min Rain = 0
KCR1 152123Z 16005KT 32/17 A299 RMK A01 T03200174  RH  042%=      5-min Rain = 0
KCR1 152124Z 14005KT 32/18 A299 RMK A01 T03230177  RH  042%=      5-min Rain = 0
KCR1 152125Z 09008KT 33/18 A299 RMK A01 T03280177  RH  041%=      5-min Rain = 0
KCR1 152126Z 10011KT 33/18 A299 RMK A01 T03280175  RH  040%=      5-min Rain = 0
KCR1 152127Z 11011KT 33/18 A299 RMK A01 T03260175  RH  041%=      5-min Rain = 0
KCR1 152128Z 10008KT 32/17 A299 RMK A01 T03240174  RH  041%=      5-min Rain = 0
KCR1 152129Z 10008KT 32/17 A299 RMK A01 T03220174  RH  041%=      5-min Rain = 0
KCR1 152130Z 10007KT 32/17 A2989 RMK A01 T03200172  RH  041%=      5-min Rain = 0
KCR1 152131Z 09005KT 32/17 A2989 RMK A01 T03190173  RH  042%=      5-min Rain = 0
KCR1 152132Z 10005KT 32/17 A2989 RMK A01 T03190173  RH  042%=      5-min Rain = 0
KCR1 152133Z 14003KT 32/17 A2989 RMK A01 T03190172  RH  042%=      5-min Rain = 0
KCR1 152134Z 13004KT 32/17 A2989 RMK A01 T03180172  RH  042%=      5-min Rain = 0
KCR1 152135Z 15007G12KT 32/17 A2989 RMK A01 T03170174  RH  042%=      5-min Rain = 0
KCR1 152136Z 13007G12KT 32/17 A2989 RMK A01 T03180172  RH  042%=      5-min Rain = 0
KCR1 152137Z 12008KT 32/17 A2989 RMK A01 T03180173  RH  042%=      5-min Rain = 0
KCR1 152138Z 13008KT 32/17 A2989 RMK A01 T03200174  RH  042%=      5-min Rain = 0
KCR1 152139Z 16008KT 32/17 A2989 RMK A01 T03240174  RH  041%=      5-min Rain = 0
KCR1 152140Z 17008KT 33/17 A2989 RMK A01 T03280174  RH  040%=      5-min Rain = 0
KCR1 152141Z 17008KT 33/18 A2989 RMK A01 T03310175  RH  039%=      5-min Rain = 0
KCR1 152142Z 17008KT 33/17 A2989 RMK A01 T03320173  RH  039%=      5-min Rain = 0
KCR1 152143Z 15007KT 33/17 A2989 RMK A01 T03300173  RH  039%=      5-min Rain = 0
KCR1 152144Z 18008KT 33/17 A2989 RMK A01 T03280173  RH  039%=      5-min Rain = 0
KCR1 152145Z 19009KT 33/17 A2989 RMK A01 T03270173  RH  040%=      5-min Rain = 0
KCR1 152146Z 17008KT 33/17 A2988 RMK A01 T03250172  RH  040%=      5-min Rain = 0
KCR1 152147Z 17007KT 32/17 A2988 RMK A01 T03240173  RH  041%=      5-min Rain = 0
KCR1 152148Z 17005KT 32/17 A2988 RMK A01 T03220172  RH  041%=      5-min Rain = 0
KCR1 152149Z 20003KT 32/17 A2988 RMK A01 T03210170  RH  040%=      5-min Rain = 0
KCR1 152150Z 17006KT 32/17 A2988 RMK A01 T03200172  RH  041%=      5-min Rain = 0
KCR1 152151Z 15004KT 32/17 A2988 RMK A01 T03200170  RH  041%=      5-min Rain = 0
KCR1 152152Z 15004KT 32/17 A2988 RMK A01 T03200171  RH  041%=      5-min Rain = 0
KCR1 152153Z 12004KT 32/17 A2988 RMK A01 T03230174  RH  041%=      5-min Rain = 0
KCR1 152154Z 15010KT 33/17 A2988 RMK A01 T03290174  RH  040%=      5-min Rain = 0
KCR1 152155Z 14009KT 33/17 A2988 RMK A01 T03320173  RH  039%=      5-min Rain = 0
KCR1 152156Z 14006KT 33/17 A2988 RMK A01 T03320174  RH  039%=      5-min Rain = 0
KCR1 152157Z 13005KT 33/17 A2988 RMK A01 T03330172  RH  038%=      5-min Rain = 0
KCR1 152158Z 14007KT 33/17 A2988 RMK A01 T03320173  RH  039%=      5-min Rain = 0
KCR1 152159Z 16007KT 33/17 A2988 RMK A01 T03330172  RH  038%=      5-min Rain = 0
KCR1 152200Z 15007KT 33/17 A2988 RMK A01 T03310171  RH  039%=      5-min Rain = 0
KCR1 152201Z 16006KT 33/17 A2988 RMK A01 T03300170  RH  039%=      5-min Rain = 0
KCR1 152202Z 14005KT 33/17 A2988 RMK A01 T03280171  RH  039%=      5-min Rain = 0
KCR1 152203Z 16005KT 33/17 A2988 RMK A01 T03280170  RH  039%=      5-min Rain = 0
KCR1 152204Z 19005KT 33/17 A2988 RMK A01 T03270171  RH  039%=      5-min Rain = 0
KCR1 152205Z 17006KT 33/17 A2988 RMK A01 T03280174  RH  040%=      5-min Rain = 0
KCR1 152206Z 14005KT 33/18 A2988 RMK A01 T03290175  RH  040%=      5-min Rain = 0
KCR1 152207Z 10008KT 33/18 A2988 RMK A01 T03300181  RH  041%=      5-min Rain = 0
KCR1 152208Z 08009KT 33/18 A2988 RMK A01 T03310183  RH  042%=      5-min Rain = 0
KCR1 152209Z 08005KT 33/18 A2987 RMK A01 T03270182  RH  042%=      5-min Rain = 0
KCR1 152210Z 09009G15KT 33/18 A2987 RMK A01 T03260182  RH  042%=      5-min Rain = 0
KCR1 152211Z 08011KT 33/18 A2987 RMK A01 T03260182  RH  043%=      5-min Rain = 0
KCR1 152212Z 09010KT 33/18 A2987 RMK A01 T03280183  RH  042%=      5-min Rain = 0
KCR1 152213Z 09010KT 33/18 A2987 RMK A01 T03310183  RH  041%=      5-min Rain = 0
KCR1 152214Z 10008KT 33/18 A2987 RMK A01 T03300182  RH  042%=      5-min Rain = 0
KCR1 152215Z 10012KT 33/18 A2987 RMK A01 T03310184  RH  042%=      5-min Rain = 0
KCR1 152216Z 08010KT 33/18 A2987 RMK A01 T03320183  RH  041%=      5-min Rain = 0
KCR1 152217Z 11010KT 33/18 A2987 RMK A01 T03300182  RH  041%=      5-min Rain = 0
KCR1 152218Z 12010KT 33/18 A2987 RMK A01 T03310184  RH  042%=      5-min Rain = 0
KCR1 152219Z 11011KT 33/18 A2987 RMK A01 T03310183  RH  042%=      5-min Rain = 0
KCR1 152220Z 10011KT 33/19 A2987 RMK A01 T03310185  RH  042%=      5-min Rain = 0
KCR1 152221Z 09012KT 33/19 A2987 RMK A01 T03330186  RH  042%=      5-min Rain = 0
KCR1 152222Z 07011KT 33/19 A2987 RMK A01 T03340185  RH  041%=      5-min Rain = 0
KCR1 152223Z 09011KT 33/19 A2987 RMK A01 T03320185  RH  042%=      5-min Rain = 0
KCR1 152224Z 11010KT 33/19 A2987 RMK A01 T03310186  RH  042%=      5-min Rain = 0
KCR1 152225Z 10010KT 33/19 A2987 RMK A01 T03300185  RH  042%=      5-min Rain = 0
KCR1 152226Z 10009KT 33/18 A2987 RMK A01 T03250183  RH  043%=      5-min Rain = 0
KCR1 152227Z 10010KT 32/18 A2987 RMK A01 T03210183  RH  044%=      5-min Rain = 0
KCR1 152228Z 11010KT 32/18 A2987 RMK A01 T03190183  RH  045%=      5-min Rain = 0
KCR1 152229Z 12009KT 32/18 A2987 RMK A01 T03190184  RH  045%=      5-min Rain = 0
KCR1 152230Z 10010KT 32/18 A2987 RMK A01 T03190184  RH  045%=      5-min Rain = 0
KCR1 152231Z 10010KT 32/18 A2987 RMK A01 T03190183  RH  044%=      5-min Rain = 0
KCR1 152232Z 10009KT 32/18 A2987 RMK A01 T03180182  RH  044%=      5-min Rain = 0
KCR1 152233Z 12011KT 32/18 A2987 RMK A01 T03170183  RH  045%=      5-min Rain = 0
KCR1 152234Z 13011KT 32/18 A2987 RMK A01 T03160182  RH  045%=      5-min Rain = 0
KCR1 152235Z 12009KT 31/18 A2987 RMK A01 T03140181  RH  045%=      5-min Rain = 0
KCR1 152236Z 12011KT 31/18 A2987 RMK A01 T03130182  RH  046%=      5-min Rain = 0
KCR1 152237Z 11009KT 31/18 A2987 RMK A01 T03130182  RH  046%=      5-min Rain = 0
KCR1 152238Z 11009KT 31/18 A2987 RMK A01 T03120182  RH  046%=      5-min Rain = 0
KCR1 152239Z 12008KT 31/18 A2987 RMK A01 T03130181  RH  045%=      5-min Rain = 0
KCR1 152240Z 12010KT 31/18 A2987 RMK A01 T03130181  RH  045%=      5-min Rain = 0
KCR1 152241Z 12008KT 31/18 A2987 RMK A01 T03130181  RH  045%=      5-min Rain = 0
KCR1 152242Z 11007G13KT 31/18 A2987 RMK A01 T03120181  RH  046%=      5-min Rain = 0
KCR1 152243Z 12012KT 31/18 A2987 RMK A01 T03120183  RH  046%=      5-min Rain = 0
KCR1 152244Z 12011KT 31/18 A2987 RMK A01 T03110184  RH  047%=      5-min Rain = 0
KCR1 152245Z 11010KT 31/18 A2987 RMK A01 T03110184  RH  047%=      5-min Rain = 0
KCR1 152246Z 11010KT 31/19 A2987 RMK A01 T03110185  RH  047%=      5-min Rain = 0
KCR1 152247Z 11010KT 31/19 A2987 RMK A01 T03110185  RH  047%=      5-min Rain = 0
KCR1 152248Z 11010KT 31/19 A2987 RMK A01 T03110185  RH  047%=      5-min Rain = 0
KCR1 152249Z 12010KT 31/19 A2987 RMK A01 T03110186  RH  047%=      5-min Rain = 0
KCR1 152250Z 13010KT 31/18 A2987 RMK A01 T03120184  RH  047%=      5-min Rain = 0
KCR1 152251Z 13011KT 31/19 A2987 RMK A01 T03120185  RH  047%=      5-min Rain = 0
KCR1 152252Z 12011KT 31/19 A2987 RMK A01 T03120187  RH  047%=      5-min Rain = 0
KCR1 152253Z 12012KT 31/19 A2987 RMK A01 T03120187  RH  047%=      5-min Rain = 0
KCR1 152254Z 11012KT 31/19 A2987 RMK A01 T03120189  RH  048%=      5-min Rain = 0
KCR1 152255Z 10014KT 31/19 A2987 RMK A01 T03120188  RH  048%=      5-min Rain = 0
KCR1 152256Z 11014KT 31/19 A2987 RMK A01 T03120189  RH  048%=      5-min Rain = 0
KCR1 152257Z 11013KT 31/19 A2987 RMK A01 T03130190  RH  048%=      5-min Rain = 0
KCR1 152258Z 11013KT 31/19 A2987 RMK A01 T03120191  RH  048%=      5-min Rain = 0
KCR1 152259Z 11011KT 31/19 A2987 RMK A01 T03130188  RH  048%=      5-min Rain = 0
KCR1 152300Z 10010KT 31/19 A2987 RMK A01 T03120190  RH  048%=      5-min Rain = 0
KCR1 152301Z 10013G19KT 31/19 A2987 RMK A01 T03110192  RH  049%=      5-min Rain = 0
KCR1 152302Z 11014KT 31/20 A2987 RMK A01 T03110197  RH  050%=      5-min Rain = 0
KCR1 152303Z 09015KT 31/20 A2987 RMK A01 T03110198  RH  051%=      5-min Rain = 0
KCR1 152304Z 08014KT 31/20 A2987 RMK A01 T03090198  RH  051%=      5-min Rain = 0
KCR1 152305Z 09013KT 31/20 A2987 RMK A01 T03090198  RH  051%=      5-min Rain = 0
KCR1 152306Z 08011KT 31/20 A2987 RMK A01 T03100197  RH  051%=      5-min Rain = 0
KCR1 152307Z 09013G18KT 31/20 A2987 RMK A01 T03120195  RH  050%=      5-min Rain = 0
KCR1 152308Z 12012KT 31/20 A2987 RMK A01 T03140195  RH  049%=      5-min Rain = 0
KCR1 152309Z 12013KT 32/19 A2987 RMK A01 T03160194  RH  048%=      5-min Rain = 0
KCR1 152310Z 12012KT 32/19 A2988 RMK A01 T03180192  RH  047%=      5-min Rain = 0
KCR1 152311Z 12012KT 32/19 A2988 RMK A01 T03170192  RH  048%=      5-min Rain = 0
KCR1 152312Z 11011KT 32/19 A2988 RMK A01 T03170191  RH  047%=      5-min Rain = 0
KCR1 152313Z 10011KT 32/19 A2988 RMK A01 T03170192  RH  048%=      5-min Rain = 0
KCR1 152314Z 10014KT 32/20 A2988 RMK A01 T03180195  RH  048%=      5-min Rain = 0
KCR1 152315Z 10015G20KT 32/20 A2988 RMK A01 T03190201  RH  050%=      5-min Rain = 0
KCR1 152316Z 10016KT 32/20 A2988 RMK A01 T03190203  RH  050%=      5-min Rain = 0
KCR1 152317Z 10017KT 32/20 A2988 RMK A01 T03170203  RH  051%=      5-min Rain = 0
KCR1 152318Z 10017KT 32/20 A2988 RMK A01 T03150203  RH  052%=      5-min Rain = 0
KCR1 152319Z 10014KT 31/20 A2987 RMK A01 T03130203  RH  052%=      5-min Rain = 0
KCR1 152320Z 09018KT 31/20 A2987 RMK A01 T03130204  RH  052%=      5-min Rain = 0
KCR1 152321Z 09020KT 31/21 A2988 RMK A01 T03110205  RH  054%=      5-min Rain = 0
KCR1 152322Z 09020KT 31/21 A2987 RMK A01 T03080206  RH  055%=      5-min Rain = 0
KCR1 152323Z 10018KT 30/21 A2988 RMK A01 T03040205  RH  055%=      5-min Rain = 0
KCR1 152324Z 10021KT 30/20 A2987 RMK A01 T03010204  RH  056%=      5-min Rain = 0
KCR1 152325Z 09019KT 30/20 A2987 RMK A01 T02980204  RH  057%=      5-min Rain = 0
KCR1 152326Z 10019KT 30/20 A2988 RMK A01 T02960203  RH  057%=      5-min Rain = 0
KCR1 152327Z 09019KT 30/20 A2988 RMK A01 T02950203  RH  058%=      5-min Rain = 0
KCR1 152328Z 09018KT 29/20 A2988 RMK A01 T02940203  RH  058%=      5-min Rain = 0
KCR1 152329Z 09016KT 29/20 A2988 RMK A01 T02920203  RH  058%=      5-min Rain = 0
KCR1 152330Z 09019KT 29/20 A2988 RMK A01 T02920203  RH  059%=      5-min Rain = 0
KCR1 152331Z 09015KT 29/20 A2988 RMK A01 T02910202  RH  059%=      5-min Rain = 0
KCR1 152332Z 09017KT 29/20 A2988 RMK A01 T02910203  RH  059%=      5-min Rain = 0
KCR1 152333Z 10018KT 29/20 A2988 RMK A01 T02910202  RH  059%=      5-min Rain = 0
KCR1 152334Z 10018KT 29/20 A2988 RMK A01 T02900201  RH  059%=      5-min Rain = 0
KCR1 152335Z 09016KT 29/20 A2988 RMK A01 T02890201  RH  059%=      5-min Rain = 0
KCR1 152336Z 10015KT 29/20 A2988 RMK A01 T02880201  RH  059%=      5-min Rain = 0
KCR1 152337Z 10016KT 29/20 A2988 RMK A01 T02880200  RH  059%=      5-min Rain = 0
KCR1 152338Z 10018KT 29/20 A2988 RMK A01 T02890200  RH  059%=      5-min Rain = 0
KCR1 152339Z 10017KT 29/20 A2987 RMK A01 T02890200  RH  059%=      5-min Rain = 0
KCR1 152340Z 10016KT 29/20 A2987 RMK A01 T02880200  RH  059%=      5-min Rain = 0
KCR1 152341Z 09017KT 29/20 A2987 RMK A01 T02880199  RH  059%=      5-min Rain = 0
KCR1 152342Z 09017KT 29/20 A2987 RMK A01 T02880199  RH  059%=      5-min Rain = 0
KCR1 152343Z 09014KT 29/20 A2987 RMK A01 T02880199  RH  059%=      5-min Rain = 0
KCR1 152344Z 10017G22KT 29/20 A2987 RMK A01 T02880199  RH  059%=      5-min Rain = 0
KCR1 152345Z 10018KT 29/20 A2987 RMK A01 T02890199  RH  058%=      5-min Rain = 0
KCR1 152346Z 10018KT 29/20 A2987 RMK A01 T02890199  RH  058%=      5-min Rain = 0
KCR1 152347Z 09015KT 29/20 A2987 RMK A01 T02900199  RH  058%=      5-min Rain = 0
KCR1 152348Z 09014KT 29/20 A2987 RMK A01 T02900199  RH  058%=      5-min Rain = 0
KCR1 152349Z 09017KT 29/20 A2987 RMK A01 T02910199  RH  058%=      5-min Rain = 0
KCR1 152350Z 09017KT 29/20 A2987 RMK A01 T02900198  RH  058%=      5-min Rain = 0
KCR1 152351Z 09015KT 29/20 A2987 RMK A01 T02890198  RH  058%=      5-min Rain = 0
KCR1 152352Z 09018KT 29/20 A2987 RMK A01 T02880198  RH  058%=      5-min Rain = 0
KCR1 152353Z 10016KT 29/20 A2987 RMK A01 T02880198  RH  058%=      5-min Rain = 0
KCR1 152354Z 09017KT 29/20 A2987 RMK A01 T02870197  RH  058%=      5-min Rain = 0
KCR1 152355Z 09015KT 29/20 A2987 RMK A01 T02860197  RH  059%=      5-min Rain = 0
KCR1 152356Z 10017KT 29/20 A2987 RMK A01 T02860197  RH  059%=      5-min Rain = 0
KCR1 152357Z 10016KT 29/20 A2987 RMK A01 T02860197  RH  059%=      5-min Rain = 0
KCR1 152358Z 08016KT 29/20 A2987 RMK A01 T02860198  RH  059%=      5-min Rain = 0
KCR1 152359Z 08017KT 29/20 A2987 RMK A01 T02850197  RH  059%=      5-min Rain = 0
KCR1 160000Z 09015KT 29/20 A2987 RMK A01 T02850198  RH  059%=      5-min Rain = 0
KCR1 160001Z 10017KT 29/20 A2987 RMK A01 T02850198  RH  059%=      5-min Rain = 0
KCR1 160002Z 10018KT 29/20 A2986 RMK A01 T02850198  RH  059%=      5-min Rain = 0
KCR1 160003Z 09017KT 28/20 A2986 RMK A01 T02840199  RH  060%=      5-min Rain = 0
KCR1 160004Z 10016KT 28/20 A2986 RMK A01 T02840198  RH  060%=      5-min Rain = 0
KCR1 160005Z 10016G22KT 28/20 A2986 RMK A01 T02840199  RH  060%=      5-min Rain = 0
KCR1 160006Z 10017KT 28/20 A2986 RMK A01 T02840198  RH  060%=      5-min Rain = 0
KCR1 160007Z 10017G22KT 28/20 A2986 RMK A01 T02840198  RH  060%=      5-min Rain = 0
KCR1 160008Z 09016KT 28/20 A2986 RMK A01 T02840198  RH  060%=      5-min Rain = 0
KCR1 160009Z 09014KT 28/20 A2986 RMK A01 T02830198  RH  060%=      5-min Rain = 0
KCR1 160010Z 10014KT 28/20 A2986 RMK A01 T02830198  RH  060%=      5-min Rain = 0
KCR1 160011Z 09013KT 28/20 A2986 RMK A01 T02830197  RH  060%=      5-min Rain = 0
KCR1 160012Z 09015KT 28/20 A2986 RMK A01 T02830197  RH  059%=      5-min Rain = 0
KCR1 160013Z 08015KT 28/20 A2986 RMK A01 T02830197  RH  059%=      5-min Rain = 0
KCR1 160014Z 09016KT 28/20 A2986 RMK A01 T02830197  RH  059%=      5-min Rain = 0
KCR1 160015Z 10016KT 28/20 A2987 RMK A01 T02830197  RH  060%=      5-min Rain = 0
KCR1 160016Z 10015KT 28/20 A2987 RMK A01 T02830197  RH  059%=      5-min Rain = 0
KCR1 160017Z 10014KT 28/20 A2987 RMK A01 T02830196  RH  059%=      5-min Rain = 0
KCR1 160018Z 09011KT 28/20 A2987 RMK A01 T02830196  RH  059%=      5-min Rain = 0
KCR1 160019Z 10016G21KT 28/20 A2987 RMK A01 T02830196  RH  059%=      5-min Rain = 0
KCR1 160020Z 09017KT 28/20 A2987 RMK A01 T02830196  RH  059%=      5-min Rain = 0
KCR1 160021Z 10019KT 28/20 A2987 RMK A01 T02820196  RH  059%=      5-min Rain = 0
KCR1 160022Z 10017KT 28/20 A2987 RMK A01 T02810196  RH  060%=      5-min Rain = 0
KCR1 160023Z 11016KT 28/20 A2987 RMK A01 T02810196  RH  060%=      5-min Rain = 0
KCR1 160024Z 11018KT 28/20 A2987 RMK A01 T02800197  RH  060%=      5-min Rain = 0
KCR1 160025Z 11018KT 28/20 A2987 RMK A01 T02800197  RH  061%=      5-min Rain = 0
KCR1 160026Z 11016KT 28/20 A2988 RMK A01 T02790197  RH  061%=      5-min Rain = 0
KCR1 160027Z 11015KT 28/20 A2988 RMK A01 T02790197  RH  061%=      5-min Rain = 0
KCR1 160028Z 10013G19KT 28/20 A2988 RMK A01 T02790197  RH  061%=      5-min Rain = 0
KCR1 160029Z 11019KT 28/20 A2988 RMK A01 T02800198  RH  061%=      5-min Rain = 0
KCR1 160030Z 11018KT 28/20 A2988 RMK A01 T02790199  RH  062%=      5-min Rain = 0
KCR1 160031Z 11017KT 28/20 A2988 RMK A01 T02780199  RH  062%=      5-min Rain = 0
KCR1 160032Z 10015KT 28/20 A2988 RMK A01 T02770199  RH  063%=      5-min Rain = 0
KCR1 160033Z 11014G19KT 28/20 A2988 RMK A01 T02770199  RH  063%=      5-min Rain = 0
KCR1 160034Z 11016G22KT 28/20 A2988 RMK A01 T02770199  RH  063%=      5-min Rain = 0
KCR1 160035Z 11020KT 28/20 A2989 RMK A01 T02770200  RH  063%=      5-min Rain = 0
KCR1 160036Z 11018KT 28/20 A2989 RMK A01 T02760200  RH  063%=      5-min Rain = 0
KCR1 160037Z 11016KT 28/20 A2989 RMK A01 T02750200  RH  064%=      5-min Rain = 0
KCR1 160038Z 12018G23KT 28/20 A2989 RMK A01 T02750201  RH  064%=      5-min Rain = 0
KCR1 160039Z 12017G22KT 27/20 A2989 RMK A01 T02740201  RH  064%=      5-min Rain = 0
KCR1 160040Z 12016KT 27/20 A2989 RMK A01 T02730201  RH  065%=      5-min Rain = 0
KCR1 160041Z 11013KT 27/20 A2989 RMK A01 T02720201  RH  065%=      5-min Rain = 0
KCR1 160042Z 11014G19KT 27/20 A2989 RMK A01 T02720201  RH  065%=      5-min Rain = 0
KCR1 160043Z 11016KT 27/20 A2989 RMK A01 T02720201  RH  065%=      5-min Rain = 0
KCR1 160044Z 11018KT 27/20 A2989 RMK A01 T02720201  RH  065%=      5-min Rain = 0
KCR1 160045Z 11016KT 27/20 A2989 RMK A01 T02710202  RH  066%=      5-min Rain = 0
KCR1 160046Z 10015G20KT 27/20 A2989 RMK A01 T02700201  RH  066%=      5-min Rain = 0
KCR1 160047Z 11017KT 27/20 A2989 RMK A01 T02700201  RH  066%=      5-min Rain = 0
KCR1 160048Z 11017KT 27/20 A2989 RMK A01 T02700201  RH  066%=      5-min Rain = 0
KCR1 160049Z 10014KT 27/20 A2989 RMK A01 T02700202  RH  066%=      5-min Rain = 0
KCR1 160050Z 11017KT 27/20 A2989 RMK A01 T02700202  RH  066%=      5-min Rain = 0
KCR1 160051Z 12018KT 27/20 A2989 RMK A01 T02690202  RH  067%=      5-min Rain = 0
KCR1 160052Z 11020KT 27/20 A2989 RMK A01 T02690203  RH  067%=      5-min Rain = 0
KCR1 160053Z 11020KT 27/20 A2989 RMK A01 T02680203  RH  067%=      5-min Rain = 0
KCR1 160054Z 11018KT 27/20 A2989 RMK A01 T02680203  RH  068%=      5-min Rain = 0
KCR1 160055Z 11016KT 27/20 A2989 RMK A01 T02670203  RH  068%=      5-min Rain = 0
KCR1 160056Z 11014KT 27/20 A2989 RMK A01 T02670203  RH  068%=      5-min Rain = 0
KCR1 160057Z 11019KT 27/20 A2989 RMK A01 T02670203  RH  068%=      5-min Rain = 0
KCR1 160058Z 11020KT 27/20 A2989 RMK A01 T02670204  RH  068%=      5-min Rain = 0
KCR1 160059Z 12017KT 27/20 A2989 RMK A01 T02650203  RH  069%=      5-min Rain = 0
KCR1 160100Z 10014G19KT 27/20 A2989 RMK A01 T02650203  RH  069%=      5-min Rain = 0
KCR1 160101Z 10018KT 27/20 A2989 RMK A01 T02650203  RH  069%=      5-min Rain = 0
KCR1 160102Z 10015KT 27/20 A2989 RMK A01 T02650203  RH  069%=      5-min Rain = 0
KCR1 160103Z 10017KT 27/20 A2989 RMK A01 T02650203  RH  069%=      5-min Rain = 0
KCR1 160104Z 10017G23KT 27/20 A2989 RMK A01 T02650203  RH  069%=      5-min Rain = 0
KCR1 160105Z 11018KT 27/20 A2989 RMK A01 T02650203  RH  069%=      5-min Rain = 0
KCR1 160106Z 11018KT 26/20 A2989 RMK A01 T02640203  RH  069%=      5-min Rain = 0
KCR1 160107Z 11018KT 26/20 A2989 RMK A01 T02640203  RH  069%=      5-min Rain = 0
KCR1 160108Z 11016KT 26/20 A2989 RMK A01 T02640203  RH  069%=      5-min Rain = 0
KCR1 160109Z 11018KT 26/20 A2989 RMK A01 T02630202  RH  069%=      5-min Rain = 0
KCR1 160110Z 11016KT 26/20 A2989 RMK A01 T02630202  RH  069%=      5-min Rain = 0
KCR1 160111Z 11015KT 26/20 A2989 RMK A01 T02620202  RH  069%=      5-min Rain = 0
KCR1 160112Z 11016KT 26/20 A2989 RMK A01 T02620202  RH  069%=      5-min Rain = 0
KCR1 160113Z 11015KT 26/20 A2988 RMK A01 T02620202  RH  070%=      5-min Rain = 0
KCR1 160114Z 11015KT 26/20 A2988 RMK A01 T02620202  RH  070%=      5-min Rain = 0
KCR1 160115Z 11013KT 26/20 A2989 RMK A01 T02610202  RH  070%=      5-min Rain = 0
KCR1 160116Z 12013KT 26/20 A2989 RMK A01 T02610202  RH  070%=      5-min Rain = 0
KCR1 160117Z 12018KT 26/20 A2989 RMK A01 T02610201  RH  070%=      5-min Rain = 0
KCR1 160118Z 11016KT 26/20 A2989 RMK A01 T02600201  RH  070%=      5-min Rain = 0
KCR1 160119Z 12015KT 26/20 A2988 RMK A01 T02600201  RH  070%=      5-min Rain = 0
KCR1 160120Z 11015KT 26/20 A2988 RMK A01 T02590201  RH  070%=      5-min Rain = 0
KCR1 160121Z 11012KT 26/20 A2989 RMK A01 T02590201  RH  070%=      5-min Rain = 0
KCR1 160122Z 11013KT 26/20 A2989 RMK A01 T02590201  RH  070%=      5-min Rain = 0
KCR1 160123Z 11017KT 26/20 A2989 RMK A01 T02590201  RH  070%=      5-min Rain = 0
KCR1 160124Z 12017KT 26/20 A2989 RMK A01 T02580201  RH  070%=      5-min Rain = 0
KCR1 160125Z 11014KT 26/20 A2989 RMK A01 T02580201  RH  071%=      5-min Rain = 0
KCR1 160126Z 11016KT 26/20 A2989 RMK A01 T02580200  RH  071%=      5-min Rain = 0
KCR1 160127Z 11016KT 26/20 A2989 RMK A01 T02580200  RH  071%=      5-min Rain = 0
KCR1 160128Z 11017KT 26/20 A2989 RMK A01 T02570200  RH  071%=      5-min Rain = 0
KCR1 160129Z 11013KT 26/20 A2989 RMK A01 T02570200  RH  071%=      5-min Rain = 0
KCR1 160130Z 11015KT 26/20 A2989 RMK A01 T02570200  RH  071%=      5-min Rain = 0
KCR1 160131Z 11014KT 26/20 A2989 RMK A01 T02570200  RH  071%=      5-min Rain = 0
KCR1 160132Z 11013KT 26/20 A2989 RMK A01 T02570200  RH  071%=      5-min Rain = 0
KCR1 160133Z 10013KT 26/20 A2989 RMK A01 T02570199  RH  071%=      5-min Rain = 0
KCR1 160134Z 11015KT 26/20 A2989 RMK A01 T02570199  RH  070%=      5-min Rain = 0
KCR1 160135Z 11018KT 26/20 A2989 RMK A01 T02570199  RH  070%=      5-min Rain = 0
KCR1 160136Z 11016KT 26/20 A2989 RMK A01 T02570198  RH  070%=      5-min Rain = 0
KCR1 160137Z 11015KT 26/20 A2989 RMK A01 T02560198  RH  070%=      5-min Rain = 0
KCR1 160138Z 12015KT 26/20 A2989 RMK A01 T02560198  RH  070%=      5-min Rain = 0
KCR1 160139Z 12017KT 26/20 A299 RMK A01 T02560198  RH  070%=      5-min Rain = 0
KCR1 160140Z 12014KT 26/20 A299 RMK A01 T02560198  RH  070%=      5-min Rain = 0
KCR1 160141Z 12015KT 26/20 A299 RMK A01 T02560198  RH  070%=      5-min Rain = 0
KCR1 160142Z 12012G17KT 26/20 A299 RMK A01 T02560198  RH  070%=      5-min Rain = 0
KCR1 160143Z 12013KT 26/20 A299 RMK A01 T02550197  RH  070%=      5-min Rain = 0
KCR1 160144Z 12013KT 26/20 A299 RMK A01 T02550197  RH  070%=      5-min Rain = 0
KCR1 160145Z 12013KT 26/20 A299 RMK A01 T02550196  RH  070%=      5-min Rain = 0
KCR1 160146Z 11015KT 26/20 A299 RMK A01 T02550196  RH  070%=      5-min Rain = 0
KCR1 160147Z 12015KT 26/20 A299 RMK A01 T02550196  RH  070%=      5-min Rain = 0
KCR1 160148Z 12015KT 26/20 A299 RMK A01 T02550196  RH  070%=      5-min Rain = 0
KCR1 160149Z 12012KT 26/20 A299 RMK A01 T02550196  RH  070%=      5-min Rain = 0
KCR1 160150Z 11013KT 26/20 A299 RMK A01 T02550196  RH  070%=      5-min Rain = 0
KCR1 160151Z 12014KT 25/20 A299 RMK A01 T02540196  RH  070%=      5-min Rain = 0
KCR1 160152Z 12012KT 26/20 A299 RMK A01 T02550197  RH  070%=      5-min Rain = 0
KCR1 160153Z 12012KT 25/20 A299 RMK A01 T02540196  RH  070%=      5-min Rain = 0
KCR1 160154Z 12010KT 25/20 A299 RMK A01 T02540196  RH  070%=      5-min Rain = 0
KCR1 160155Z 12010KT 25/20 A299 RMK A01 T02540196  RH  070%=      5-min Rain = 0
KCR1 160156Z 11011KT 25/20 A299 RMK A01 T02530196  RH  070%=      5-min Rain = 0
KCR1 160157Z 11013KT 25/20 A299 RMK A01 T02530196  RH  071%=      5-min Rain = 0
KCR1 160158Z 12014KT 25/20 A299 RMK A01 T02530195  RH  071%=      5-min Rain = 0
KCR1 160159Z 12011KT 25/20 A299 RMK A01 T02530196  RH  071%=      5-min Rain = 0
KCR1 160200Z 12013KT 25/20 A2991 RMK A01 T02520195  RH  071%=      5-min Rain = 0
KCR1 160201Z 12011KT 25/20 A2991 RMK A01 T02520195  RH  071%=      5-min Rain = 0
KCR1 160202Z 12011KT 25/20 A2991 RMK A01 T02520195  RH  071%=      5-min Rain = 0
KCR1 160203Z 12009KT 25/20 A2991 RMK A01 T02510195  RH  071%=      5-min Rain = 0
KCR1 160204Z 12011KT 25/20 A2991 RMK A01 T02520195  RH  071%=      5-min Rain = 0
KCR1 160205Z 12012G17KT 25/20 A2991 RMK A01 T02510195  RH  071%=      5-min Rain = 0
KCR1 160206Z 13014KT 25/20 A2992 RMK A01 T02510195  RH  071%=      5-min Rain = 0
KCR1 160207Z 12014KT 25/19 A2992 RMK A01 T02510194  RH  071%=      5-min Rain = 0
KCR1 160208Z 13014KT 25/19 A2992 RMK A01 T02510194  RH  071%=      5-min Rain = 0
KCR1 160209Z 13016KT 25/19 A2992 RMK A01 T02500194  RH  071%=      5-min Rain = 0
KCR1 160210Z 13014KT 25/19 A2993 RMK A01 T02500194  RH  071%=      5-min Rain = 0
KCR1 160211Z 13013KT 25/20 A2993 RMK A01 T02500195  RH  071%=      5-min Rain = 0
KCR1 160212Z 13010KT 25/20 A2993 RMK A01 T02500195  RH  071%=      5-min Rain = 0
KCR1 160213Z 12009KT 25/20 A2993 RMK A01 T02500195  RH  072%=      5-min Rain = 0
KCR1 160214Z 13013KT 25/20 A2993 RMK A01 T02500195  RH  072%=      5-min Rain = 0
KCR1 160215Z 13012KT 25/20 A2994 RMK A01 T02500195  RH  072%=      5-min Rain = 0
KCR1 160216Z 13013KT 25/20 A2994 RMK A01 T02490195  RH  072%=      5-min Rain = 0
KCR1 160217Z 12011KT 25/20 A2994 RMK A01 T02490195  RH  072%=      5-min Rain = 0
KCR1 160218Z 13012KT 25/20 A2994 RMK A01 T02490196  RH  072%=      5-min Rain = 0
KCR1 160219Z 13011KT 25/20 A2994 RMK A01 T02490196  RH  072%=      5-min Rain = 0
KCR1 160220Z 13011KT 25/20 A2994 RMK A01 T02490196  RH  072%=      5-min Rain = 0
KCR1 160221Z 14010KT 25/20 A2995 RMK A01 T02490196  RH  072%=      5-min Rain = 0
KCR1 160222Z 13010KT 25/20 A2995 RMK A01 T02490196  RH  073%=      5-min Rain = 0
KCR1 160223Z 13010KT 25/20 A2995 RMK A01 T02490196  RH  073%=      5-min Rain = 0
KCR1 160224Z 13010KT 25/20 A2995 RMK A01 T02490197  RH  073%=      5-min Rain = 0
KCR1 160225Z 13010KT 25/20 A2995 RMK A01 T02480196  RH  073%=      5-min Rain = 0
KCR1 160226Z 13010KT 25/20 A2995 RMK A01 T02480196  RH  073%=      5-min Rain = 0
KCR1 160227Z 13009KT 25/20 A2995 RMK A01 T02480197  RH  073%=      5-min Rain = 0
KCR1 160228Z 12007KT 25/20 A2995 RMK A01 T02480197  RH  073%=      5-min Rain = 0
KCR1 160229Z 12008KT 25/20 A2995 RMK A01 T02480197  RH  073%=      5-min Rain = 0
KCR1 160230Z 12007KT 25/20 A2995 RMK A01 T02470197  RH  073%=      5-min Rain = 0
KCR1 160231Z 12009KT 25/20 A2995 RMK A01 T02470197  RH  073%=      5-min Rain = 0
KCR1 160232Z 12007KT 25/20 A2995 RMK A01 T02480197  RH  073%=      5-min Rain = 0
KCR1 160233Z 12007KT 25/20 A2995 RMK A01 T02470197  RH  073%=      5-min Rain = 0
KCR1 160234Z 11006KT 25/20 A2995 RMK A01 T02470197  RH  074%=      5-min Rain = 0
KCR1 160235Z 12006KT 25/20 A2995 RMK A01 T02470197  RH  074%=      5-min Rain = 0
KCR1 160236Z 13006KT 25/20 A2995 RMK A01 T02470197  RH  074%=      5-min Rain = 0
KCR1 160237Z 13006KT 25/20 A2995 RMK A01 T02460197  RH  074%=      5-min Rain = 0
KCR1 160238Z 13005KT 25/20 A2995 RMK A01 T02470197  RH  074%=      5-min Rain = 0
KCR1 160239Z 12005KT 25/20 A2996 RMK A01 T02460197  RH  074%=      5-min Rain = 0
KCR1 160240Z 13006KT 25/20 A2996 RMK A01 T02460197  RH  074%=      5-min Rain = 0
KCR1 160241Z 13006KT 25/20 A2996 RMK A01 T02460197  RH  074%=      5-min Rain = 0
KCR1 160242Z 13006KT 25/20 A2996 RMK A01 T02460197  RH  074%=      5-min Rain = 0
KCR1 160243Z 14007KT 25/20 A2996 RMK A01 T02460197  RH  074%=      5-min Rain = 0
KCR1 160244Z 15008KT 25/20 A2995 RMK A01 T02450197  RH  074%=      5-min Rain = 0
KCR1 160245Z 14009KT 25/20 A2995 RMK A01 T02450197  RH  075%=      5-min Rain = 0
KCR1 160246Z 14009KT 25/20 A2995 RMK A01 T02450197  RH  075%=      5-min Rain = 0
KCR1 160247Z 14009KT 25/20 A2995 RMK A01 T02450197  RH  075%=      5-min Rain = 0
KCR1 160248Z 15010KT 25/20 A2995 RMK A01 T02450197  RH  075%=      5-min Rain = 0
KCR1 160249Z 15011KT 25/20 A2995 RMK A01 T02450197  RH  075%=      5-min Rain = 0
KCR1 160250Z 15011KT 25/20 A2995 RMK A01 T02450198  RH  075%=      5-min Rain = 0
KCR1 160251Z 15012KT 25/20 A2995 RMK A01 T02450198  RH  075%=      5-min Rain = 0
KCR1 160252Z 15010KT 25/20 A2995 RMK A01 T02450197  RH  075%=      5-min Rain = 0
KCR1 160253Z 15011KT 25/20 A2995 RMK A01 T02450198  RH  075%=      5-min Rain = 0
KCR1 160254Z 15012KT 25/20 A2995 RMK A01 T02450197  RH  075%=      5-min Rain = 0
KCR1 160255Z 15011KT 25/20 A2995 RMK A01 T02450197  RH  075%=      5-min Rain = 0
KCR1 160256Z 15012KT 25/20 A2995 RMK A01 T02450197  RH  075%=      5-min Rain = 0
KCR1 160257Z 15012KT 25/20 A2995 RMK A01 T02450197  RH  074%=      5-min Rain = 0
KCR1 160258Z 16011KT 25/20 A2995 RMK A01 T02450197  RH  074%=      5-min Rain = 0
KCR1 160259Z 16012KT 25/20 A2995 RMK A01 T02450196  RH  074%=      5-min Rain = 0
KCR1 160300Z 16012KT 25/20 A2996 RMK A01 T02450197  RH  074%=      5-min Rain = 0
KCR1 160301Z 17012KT 25/20 A2996 RMK A01 T02450197  RH  074%=      5-min Rain = 0
KCR1 160302Z 17012KT 25/20 A2997 RMK A01 T02450196  RH  074%=      5-min Rain = 0
KCR1 160303Z 18012KT 25/20 A2998 RMK A01 T02450197  RH  075%=      5-min Rain = 0
KCR1 160304Z 19012KT 24/20 A2998 RMK A01 T02440195  RH  074%=      5-min Rain = 0
KCR1 160305Z 20011KT 25/20 A2999 RMK A01 T02450196  RH  074%=      5-min Rain = 0
KCR1 160306Z 20010KT 24/20 A2999 RMK A01 T02440198  RH  075%=      5-min Rain = 0
KCR1 160307Z 20010KT 24/20 A2999 RMK A01 T02430197  RH  075%=      5-min Rain = 0
KCR1 160308Z 20011KT 24/20 A2999 RMK A01 T02430197  RH  075%=      5-min Rain = 0
KCR1 160309Z 21012KT 24/20 A2998 RMK A01 T02430195  RH  075%=      5-min Rain = 0
KCR1 160310Z 20015KT 24/19 A2998 RMK A01 T02430191  RH  073%=      5-min Rain = 0
KCR1 160311Z 21020KT 24/19 A2998 RMK A01 T02430189  RH  072%=      5-min Rain = 0
KCR1 160312Z 21023KT 24/18 A2997 RMK A01 T02430184  RH  070%=      5-min Rain = 0
KCR1 160313Z 20023KT 24/18 A2997 RMK A01 T02430177  RH  067%=      5-min Rain = 0
KCR1 160314Z 20023KT 24/18 A2996 RMK A01 T02410179  RH  068%=      5-min Rain = 0
KCR1 160315Z 20023KT 24/18 A2996 RMK A01 T02390182  RH  070%=      5-min Rain = 0
KCR1 160316Z 20023KT 24/18 A2996 RMK A01 T02360184  RH  073%=      5-min Rain = 0
KCR1 160317Z 20023KT 23/18 A2995 RMK A01 T02330182  RH  073%=      5-min Rain = 0
KCR1 160318Z 19021KT 23/18 A2995 RMK A01 T02320180  RH  072%=      5-min Rain = 0
KCR1 160319Z 19021KT 23/18 A2994 RMK A01 T02300181  RH  074%=      5-min Rain = 0
KCR1 160320Z 19020KT 23/18 A2994 RMK A01 T02280180  RH  074%=      5-min Rain = 0
KCR1 160321Z 18019KT 23/18 A2993 RMK A01 T02270181  RH  076%=      5-min Rain = 0
KCR1 160322Z 18020G25KT 23/17 A2993 RMK A01 T02250173  RH  073%=      5-min Rain = 0
KCR1 160323Z 19015KT 23/17 A2993 RMK A01 T02260165  RH  069%=      5-min Rain = 0.01
KCR1 160324Z 18015KT 23/17 A2992 RMK A01 T02260169  RH  070%=      5-min Rain = 0
KCR1 160325Z 17014KT 22/17 A2992 RMK A01 T02240168  RH  071%=      5-min Rain = 0
KCR1 160326Z 17015KT 22/17 A2991 RMK A01 T02230167  RH  071%=      5-min Rain = 0
KCR1 160327Z 18013KT 22/16 A299 RMK A01 T02230156  RH  066%=      5-min Rain = 0
KCR1 160328Z 18009KT 22/15 A2989 RMK A01 T02240149  RH  062%=      5-min Rain = 0
KCR1 160329Z 13006KT 23/14 A2988 RMK A01 T02260140  RH  058%=      5-min Rain = 0
KCR1 160330Z 15008KT 23/15 A2988 RMK A01 T02270148  RH  061%=      5-min Rain = 0
KCR1 160331Z 16006KT 23/15 A2988 RMK A01 T02260149  RH  062%=      5-min Rain = 0
KCR1 160332Z 20001KT 23/14 A2988 RMK A01 T02260141  RH  059%=      5-min Rain = 0
KCR1 160333Z 25002KT 23/14 A2988 RMK A01 T02270141  RH  058%=      5-min Rain = 0
KCR1 160334Z 26002KT 23/14 A2989 RMK A01 T02290144  RH  059%=      5-min Rain = 0
KCR1 160335Z 15001KT 23/14 A2989 RMK A01 T02300140  RH  057%=      5-min Rain = 0
KCR1 160336Z 33001KT 23/13 A2989 RMK A01 T02320128  RH  052%=      5-min Rain = 0
KCR1 160337Z 31007G12KT 24/12 A299 RMK A01 T02370123  RH  049%=      5-min Rain = 0
KCR1 160338Z 31009KT 24/14 A299 RMK A01 T02420137  RH  052%=      5-min Rain = 0
KCR1 160339Z 01009KT 24/15 A2991 RMK A01 T02430146  RH  055%=      5-min Rain = 0
KCR1 160340Z 00007KT 24/14 A2991 RMK A01 T02430144  RH  054%=      5-min Rain = 0
KCR1 160341Z 04006KT 25/15 A2991 RMK A01 T02470154  RH  056%=      5-min Rain = 0
KCR1 160342Z 03007KT 25/16 A2991 RMK A01 T02470157  RH  057%=      5-min Rain = 0
KCR1 160343Z 07009KT 25/16 A2991 RMK A01 T02450158  RH  058%=      5-min Rain = 0
KCR1 160344Z 07008KT 24/15 A2991 RMK A01 T02430151  RH  057%=      5-min Rain = 0
KCR1 160345Z 05009KT 24/16 A2992 RMK A01 T02430157  RH  059%=      5-min Rain = 0
KCR1 160346Z 04010KT 24/17 A2993 RMK A01 T02400172  RH  065%=      5-min Rain = 0
KCR1 160347Z 02010KT 24/17 A2993 RMK A01 T02360174  RH  068%=      5-min Rain = 0
KCR1 160348Z 03009KT 23/18 A2993 RMK A01 T02340175  RH  069%=      5-min Rain = 0
KCR1 160349Z 04009KT 23/18 A2993 RMK A01 T02320176  RH  071%=      5-min Rain = 0
KCR1 160350Z 04007KT 23/18 A2994 RMK A01 T02320178  RH  072%=      5-min Rain = 0
KCR1 160351Z 04008KT 23/18 A2994 RMK A01 T02310178  RH  072%=      5-min Rain = 0
KCR1 160352Z 04008KT 23/18 A2994 RMK A01 T02310178  RH  072%=      5-min Rain = 0
KCR1 160353Z 03008KT 23/18 A2994 RMK A01 T02300179  RH  073%=      5-min Rain = 0
KCR1 160354Z 05006KT 23/18 A2994 RMK A01 T02300178  RH  072%=      5-min Rain = 0
KCR1 160355Z 05004KT 23/18 A2994 RMK A01 T02300177  RH  072%=      5-min Rain = 0
KCR1 160356Z 01002KT 23/18 A2995 RMK A01 T02300178  RH  072%=      5-min Rain = 0
KCR1 160357Z 26008G14KT 23/18 A2996 RMK A01 T02300181  RH  074%=      5-min Rain = 0
KCR1 160358Z 26012KT 23/18 A2998 RMK A01 T02270175  RH  072%=      5-min Rain = 0
KCR1 160359Z 27011G16KT 23/16 A2999 RMK A01 T02290163  RH  066%=      5-min Rain = 0
KCR1 160400Z 28014KT 23/15 A30 RMK A01 T02330153  RH  061%=      5-min Rain = 0
KCR1 160401Z 28012G17KT 24/15 A30 RMK A01 T02360153  RH  059%=      5-min Rain = 0
KCR1 160402Z 28014KT 24/15 A3001 RMK A01 T02370153  RH  059%=      5-min Rain = 0
KCR1 160403Z 28017G22KT 24/16 A3001 RMK A01 T02370156  RH  061%=      5-min Rain = 0
KCR1 160404Z 27016G22KT 24/16 A3002 RMK A01 T02360159  RH  062%=      5-min Rain = 0
KCR1 160405Z 27021KT 24/16 A3003 RMK A01 T02360160  RH  062%=      5-min Rain = 0
KCR1 160406Z 27018G25KT 24/16 A3003 RMK A01 T02350162  RH  064%=      5-min Rain = 0
KCR1 160407Z 27020G28KT 23/17 A3004 RMK A01 T02330165  RH  066%=      5-min Rain = 0
KCR1 160408Z 28024G39KT 23/17 A3005 RMK A01 T02310170  RH  068%=      5-min Rain = 0
KCR1 160409Z 28031G39KT 23/17 A3005 RMK A01 T02300172  RH  070%=      5-min Rain = 0
KCR1 160410Z 28026G36KT 23/17 A3006 RMK A01 T02290173  RH  071%=      5-min Rain = 0
KCR1 160411Z 29029G37KT 23/17 A3006 RMK A01 T02270171  RH  071%=      5-min Rain = 0
KCR1 160412Z 29029G34KT 23/17 A3007 RMK A01 T02260169  RH  070%=      5-min Rain = 0
KCR1 160413Z 29032G41KT 22/17 A3007 RMK A01 T02240168  RH  071%=      5-min Rain = 0
KCR1 160414Z 29025G39KT 22/17 A3008 RMK A01 T02220167  RH  071%=      5-min Rain = 0
KCR1 160415Z 29025G35KT 22/17 A3009 RMK A01 T02200167  RH  072%=      5-min Rain = 0
KCR1 160416Z 30035G47KT 22/16 A3009 RMK A01 T02150163  RH  072%=      5-min Rain = 0
KCR1 160417Z 30027G33KT 21/16 A3009 RMK A01 T02070162  RH  076%=      5-min Rain = 0
KCR1 160418Z 31028G39KT 20/16 A3009 RMK A01 T02020163  RH  078%=      5-min Rain = 0.01
KCR1 160419Z 31026G34KT 20/16 A3009 RMK A01 T01990162  RH  079%=      5-min Rain = 0.01
KCR1 160420Z 31027G34KT 20/16 A3009 RMK A01 T01950161  RH  081%=      5-min Rain = 0
KCR1 160421Z 31029G36KT 19/16 A301 RMK A01 T01930157  RH  080%=      5-min Rain = 0
KCR1 160422Z 30032G40KT 19/16 A301 RMK A01 T01910155  RH  079%=      5-min Rain = 0.01
KCR1 160423Z 30027G35KT 19/15 A301 RMK A01 T01900153  RH  079%=      5-min Rain = 0
KCR1 160424Z 31029G35KT 19/15 A301 RMK A01 T01880154  RH  080%=      5-min Rain = 0.01
KCR1 160425Z 31025G30KT 19/15 A301 RMK A01 T01870152  RH  080%=      5-min Rain = 0
KCR1 160426Z 30026G32KT 19/15 A301 RMK A01 T01870152  RH  081%=      5-min Rain = 0
KCR1 160427Z 30020G29KT 19/15 A3011 RMK A01 T01850153  RH  081%=      5-min Rain = 0.01
KCR1 160428Z 31022G28KT 19/15 A301 RMK A01 T01850154  RH  082%=      5-min Rain = 0
KCR1 160429Z 30019KT 18/15 A3011 RMK A01 T01830154  RH  083%=      5-min Rain = 0
KCR1 160430Z 30020G25KT 18/15 A3011 RMK A01 T01830154  RH  083%=      5-min Rain = 0.01
KCR1 160431Z 30019G25KT 18/15 A3011 RMK A01 T01820153  RH  083%=      5-min Rain = 0
KCR1 160432Z 30023G28KT 18/15 A301 RMK A01 T01820152  RH  083%=      5-min Rain = 0
KCR1 160433Z 30019KT 18/15 A301 RMK A01 T01820151  RH  082%=      5-min Rain = 0
KCR1 160434Z 30019G24KT 18/15 A301 RMK A01 T01820151  RH  082%=      5-min Rain = 0.01
KCR1 160435Z 30015G21KT 18/15 A301 RMK A01 T01820153  RH  083%=      5-min Rain = 0
KCR1 160436Z 31018KT 18/15 A3011 RMK A01 T01810153  RH  084%=      5-min Rain = 0
KCR1 160437Z 31018G25KT 18/15 A301 RMK A01 T01810154  RH  084%=      5-min Rain = 0.01
KCR1 160438Z 31021KT 18/15 A301 RMK A01 T01810154  RH  084%=      5-min Rain = 0
KCR1 160439Z 31018KT 18/16 A3011 RMK A01 T01810156  RH  085%=      5-min Rain = 0.01
KCR1 160440Z 32017KT 18/16 A301 RMK A01 T01810156  RH  085%=      5-min Rain = 0.03
KCR1 160441Z 32019G26KT 18/16 A301 RMK A01 T01820155  RH  084%=      5-min Rain = 0
KCR1 160442Z 31019G26KT 18/16 A3011 RMK A01 T01840156  RH  084%=      5-min Rain = 0.01
KCR1 160443Z 30017G23KT 19/16 A301 RMK A01 T01850157  RH  084%=      5-min Rain = 0
KCR1 160444Z 31016KT 19/16 A301 RMK A01 T01850158  RH  084%=      5-min Rain = 0
KCR1 160445Z 30015G20KT 19/16 A3011 RMK A01 T01850159  RH  085%=      5-min Rain = 0.01
KCR1 160446Z 30015KT 19/16 A301 RMK A01 T01850159  RH  085%=      5-min Rain = 0
KCR1 160447Z 30013KT 19/16 A301 RMK A01 T01850159  RH  085%=      5-min Rain = 0.01
KCR1 160448Z 30014KT 19/16 A301 RMK A01 T01850159  RH  085%=      5-min Rain = 0
KCR1 160449Z 30012KT 19/16 A301 RMK A01 T01860158  RH  084%=      5-min Rain = 0
KCR1 160450Z 30013G18KT 19/16 A3009 RMK A01 T01860158  RH  084%=      5-min Rain = 0.01
KCR1 160451Z 29010KT 19/16 A3009 RMK A01 T01860159  RH  084%=      5-min Rain = 0
KCR1 160452Z 29012KT 19/16 A3009 RMK A01 T01860159  RH  084%=      5-min Rain = 0
KCR1 160453Z 30011G16KT 19/16 A3009 RMK A01 T01870158  RH  084%=      5-min Rain = 0
KCR1 160454Z 30011KT 19/16 A3009 RMK A01 T01870159  RH  084%=      5-min Rain = 0.01
KCR1 160455Z 30010KT 19/16 A3009 RMK A01 T01870159  RH  084%=      5-min Rain = 0
KCR1 160456Z 29010KT 19/16 A3009 RMK A01 T01880159  RH  084%=      5-min Rain = 0
KCR1 160457Z 29008KT 19/16 A3008 RMK A01 T01880160  RH  084%=      5-min Rain = 0.01
KCR1 160458Z 29008KT 19/16 A3008 RMK A01 T01880160  RH  084%=      5-min Rain = 0
KCR1 160459Z 30010KT 19/16 A3008 RMK A01 T01880157  RH  082%=      5-min Rain = 0.01

Page generated in 0.0326 seconds.